Time,TemperatureF,DewpointF,PressureIn,WindDirection,WindDirectionDegrees,WindSpeedMPH,WindSpeedGustMPH,Humidity,HourlyPrecipIn,Conditions,Clouds,dailyrainin,SolarRadiationWatts/m^2,SoftwareType,DateUTC
2013-01-22 00:00:00,22.1,0.4,29.73,WSW,257,7.0,10.0,38,0.00,,CLR,0.00,0.00,VWS V14.01,2013-01-22 05:00:00,
2013-01-22 00:01:00,22.1,0.4,29.73,West,272,8.0,8.0,38,0.00,,CLR,0.00,0.00,VWS V14.01,2013-01-22 05:01:00,
2013-01-22 00:05:00,20.6,1.2,29.72,West,277,6.0,10.0,42,0.00,,CLR,0.00,0.00,VWS V14.01,2013-01-22 05:05:00,
2013-01-22 00:06:00,21.9,0.2,29.73,West,264,8.0,12.0,38,0.00,,CLR,0.00,0.00,VWS V14.01,2013-01-22 05:06:00,
2013-01-22 00:10:00,20.6,1.2,29.72,WSW,241,10.0,10.0,42,0.00,,CLR,0.00,0.00,VWS V14.01,2013-01-22 05:10:00,
2013-01-22 00:11:00,21.8,0.1,29.73,West,271,5.0,12.0,38,0.00,,CLR,0.00,0.00,VWS V14.01,2013-01-22 05:11:00,
2013-01-22 00:15:00,20.5,1.6,29.73,WSW,257,2.0,3.0,43,0.00,,CLR,0.00,0.00,VWS V14.01,2013-01-22 05:15:00,
2013-01-22 00:16:00,21.6,-0.1,29.72,WSW,241,9.0,10.0,38,0.00,,CLR,0.00,0.00,VWS V14.01,2013-01-22 05:16:00,
2013-01-22 00:20:00,20.3,1.9,29.73,WSW,240,7.0,7.0,44,0.00,,CLR,0.00,0.00,VWS V14.01,2013-01-22 05:20:00,
2013-01-22 00:21:00,21.4,-0.2,29.72,WSW,254,8.0,11.0,38,0.00,,CLR,0.00,0.00,VWS V14.01,2013-01-22 05:21:00,
2013-01-22 00:25:00,20.3,2.4,29.73,West,267,3.0,7.0,45,0.00,,CLR,0.00,0.00,VWS V14.01,2013-01-22 05:25:00,
2013-01-22 00:26:00,21.4,-0.2,29.72,West,275,5.0,12.0,38,0.00,,CLR,0.00,0.00,VWS V14.01,2013-01-22 05:26:00,
2013-01-22 00:30:00,20.2,2.3,29.73,West,263,2.0,5.0,45,0.00,,CLR,0.00,0.00,VWS V14.01,2013-01-22 05:30:00,
2013-01-22 00:31:00,21.3,-0.3,29.72,WNW,285,6.0,11.0,38,0.00,,CLR,0.00,0.00,VWS V14.01,2013-01-22 05:31:00,
2013-01-22 00:35:00,20.0,2.1,29.73,WSW,239,2.0,10.0,45,0.00,,CLR,0.00,0.00,VWS V14.01,2013-01-22 05:35:00,
2013-01-22 00:36:00,21.3,-0.3,29.72,West,277,3.0,8.0,38,0.00,,CLR,0.00,0.00,VWS V14.01,2013-01-22 05:36:00,
2013-01-22 00:40:00,20.0,2.1,29.73,SW,233,10.0,13.0,45,0.00,,CLR,0.00,0.00,VWS V14.01,2013-01-22 05:40:00,
2013-01-22 00:41:00,21.1,-0.5,29.72,WSW,248,7.0,8.0,38,0.00,,CLR,0.00,0.00,VWS V14.01,2013-01-22 05:41:00,
2013-01-22 00:45:00,20.0,2.1,29.74,West,274,2.0,16.0,45,0.00,,CLR,0.00,0.00,VWS V14.01,2013-01-22 05:45:00,
2013-01-22 00:46:00,21.0,-0.1,29.72,WSW,240,8.0,8.0,39,0.00,,CLR,0.00,0.00,VWS V14.01,2013-01-22 05:46:00,
2013-01-22 00:50:00,19.9,2.5,29.74,WSW,251,6.0,12.0,46,0.00,,CLR,0.00,0.00,VWS V14.01,2013-01-22 05:50:00,
2013-01-22 00:51:00,21.0,-0.1,29.72,West,264,8.0,13.0,39,0.00,,CLR,0.00,0.00,VWS V14.01,2013-01-22 05:51:00,
2013-01-22 00:55:00,19.9,2.5,29.74,WSW,250,10.0,18.0,46,0.00,,CLR,0.00,0.00,VWS V14.01,2013-01-22 05:55:00,
2013-01-22 00:56:00,21.0,0.5,29.72,West,260,5.0,6.0,40,0.00,,CLR,0.00,0.00,VWS V14.01,2013-01-22 05:56:00,
2013-01-22 01:00:00,19.9,2.9,29.75,West,275,6.0,12.0,47,0.00,,CLR,0.00,0.00,VWS V14.01,2013-01-22 06:00:00,
2013-01-22 01:01:00,20.8,0.8,29.72,West,263,0.0,7.0,41,0.00,,CLR,0.00,0.00,VWS V14.01,2013-01-22 06:01:00,
2013-01-22 01:05:00,19.7,3.2,29.75,West,265,11.0,14.0,48,0.00,,CLR,0.00,0.00,VWS V14.01,2013-01-22 06:05:00,
2013-01-22 01:06:00,20.6,1.2,29.72,WSW,251,3.0,10.0,42,0.00,,CLR,0.00,0.00,VWS V14.01,2013-01-22 06:06:00,
2013-01-22 01:10:00,19.7,3.2,29.75,WSW,250,13.0,13.0,48,0.00,,CLR,0.00,0.00,VWS V14.01,2013-01-22 06:10:00,
2013-01-22 01:11:00,20.6,1.2,29.72,WSW,248,7.0,10.0,42,0.00,,CLR,0.00,0.00,VWS V14.01,2013-01-22 06:11:00,
2013-01-22 01:15:00,19.7,3.7,29.75,SW,234,3.0,9.0,49,0.00,,CLR,0.00,0.00,VWS V14.01,2013-01-22 06:15:00,
2013-01-22 01:16:00,20.5,1.6,29.73,WSW,258,3.0,3.0,43,0.00,,CLR,0.00,0.00,VWS V14.01,2013-01-22 06:16:00,
2013-01-22 01:20:00,19.4,3.8,29.75,West,263,17.0,17.0,50,0.00,,CLR,0.00,0.00,VWS V14.01,2013-01-22 06:20:00,
2013-01-22 01:21:00,20.3,1.9,29.73,West,274,8.0,9.0,44,0.00,,CLR,0.00,0.00,VWS V14.01,2013-01-22 06:21:00,
2013-01-22 01:25:00,19.2,4.1,29.75,West,260,14.0,14.0,51,0.00,,CLR,0.00,0.00,VWS V14.01,2013-01-22 06:25:00,
2013-01-22 01:26:00,20.2,2.3,29.73,West,261,2.0,6.0,45,0.00,,CLR,0.00,0.00,VWS V14.01,2013-01-22 06:26:00,
2013-01-22 01:30:00,19.1,4.0,29.76,WSW,250,13.0,17.0,51,0.00,,CLR,0.00,0.00,VWS V14.01,2013-01-22 06:30:00,
2013-01-22 01:31:00,20.0,2.1,29.73,West,263,7.0,7.0,45,0.00,,CLR,0.00,0.00,VWS V14.01,2013-01-22 06:31:00,
2013-01-22 01:35:00,18.9,3.8,29.76,SW,236,3.0,10.0,51,0.00,,CLR,0.00,0.00,VWS V14.01,2013-01-22 06:35:00,
2013-01-22 01:36:00,20.0,2.1,29.73,West,264,6.0,9.0,45,0.00,,CLR,0.00,0.00,VWS V14.01,2013-01-22 06:36:00,
2013-01-22 01:40:00,18.8,3.7,29.76,SW,233,7.0,11.0,51,0.00,,CLR,0.00,0.00,VWS V14.01,2013-01-22 06:40:00,
2013-01-22 01:41:00,20.0,2.1,29.73,West,275,7.0,13.0,45,0.00,,CLR,0.00,0.00,VWS V14.01,2013-01-22 06:41:00,
2013-01-22 01:45:00,18.6,3.5,29.76,West,267,7.0,10.0,51,0.00,,CLR,0.00,0.00,VWS V14.01,2013-01-22 06:45:00,
2013-01-22 01:46:00,20.0,2.1,29.74,NW,309,5.0,12.0,45,0.00,,CLR,0.00,0.00,VWS V14.01,2013-01-22 06:46:00,
2013-01-22 01:50:00,18.3,3.2,29.76,WSW,251,10.0,13.0,51,0.00,,CLR,0.00,0.00,VWS V14.01,2013-01-22 06:50:00,
2013-01-22 01:51:00,19.9,2.5,29.74,WSW,253,8.0,16.0,46,0.00,,CLR,0.00,0.00,VWS V14.01,2013-01-22 06:51:00,
2013-01-22 01:55:00,18.1,3.5,29.76,SW,234,8.0,10.0,52,0.00,,CLR,0.00,0.00,VWS V14.01,2013-01-22 06:55:00,
2013-01-22 01:56:00,19.9,2.5,29.74,West,278,5.0,18.0,46,0.00,,CLR,0.00,0.00,VWS V14.01,2013-01-22 06:56:00,
2013-01-22 02:01:00,19.9,2.9,29.75,WSW,246,4.0,11.0,47,0.00,,CLR,0.00,0.00,VWS V14.01,2013-01-22 07:01:00,
2013-01-22 02:05:00,17.8,3.6,29.76,SW,234,9.0,10.0,53,0.00,,CLR,0.00,0.00,VWS V14.01,2013-01-22 07:05:00,
2013-01-22 02:06:00,19.7,3.2,29.75,WSW,256,4.0,12.0,48,0.00,,CLR,0.00,0.00,VWS V14.01,2013-01-22 07:06:00,
2013-01-22 02:10:00,17.7,4.3,29.76,West,260,6.0,7.0,55,0.00,,CLR,0.00,0.00,VWS V14.01,2013-01-22 07:10:00,
2013-01-22 02:11:00,19.7,3.2,29.75,WSW,258,5.0,13.0,48,0.00,,CLR,0.00,0.00,VWS V14.01,2013-01-22 07:11:00,
2013-01-22 02:15:00,17.5,4.5,29.76,West,264,6.0,9.0,56,0.00,,CLR,0.00,0.00,VWS V14.01,2013-01-22 07:15:00,
2013-01-22 02:16:00,19.7,3.7,29.75,WSW,257,11.0,12.0,49,0.00,,CLR,0.00,0.00,VWS V14.01,2013-01-22 07:16:00,
2013-01-22 02:20:00,17.3,5.1,29.76,WSW,254,3.0,13.0,58,0.00,,CLR,0.00,0.00,VWS V14.01,2013-01-22 07:20:00,
2013-01-22 02:21:00,19.4,3.8,29.75,WSW,257,8.0,17.0,50,0.00,,CLR,0.00,0.00,VWS V14.01,2013-01-22 07:21:00,
2013-01-22 02:25:00,17.0,5.2,29.76,West,260,8.0,16.0,59,0.00,,CLR,0.00,0.00,VWS V14.01,2013-01-22 07:25:00,
2013-01-22 02:26:00,19.2,4.1,29.75,West,275,4.0,14.0,51,0.00,,CLR,0.00,0.00,VWS V14.01,2013-01-22 07:26:00,
2013-01-22 02:30:00,16.9,5.4,29.76,West,272,9.0,13.0,60,0.00,,CLR,0.00,0.00,VWS V14.01,2013-01-22 07:30:00,
2013-01-22 02:31:00,19.1,4.0,29.76,West,278,5.0,17.0,51,0.00,,CLR,0.00,0.00,VWS V14.01,2013-01-22 07:31:00,
2013-01-22 02:35:00,16.9,5.4,29.76,West,265,8.0,13.0,60,0.00,,CLR,0.00,0.00,VWS V14.01,2013-01-22 07:35:00,
2013-01-22 02:36:00,18.9,3.8,29.76,West,277,6.0,10.0,51,0.00,,CLR,0.00,0.00,VWS V14.01,2013-01-22 07:36:00,
2013-01-22 02:40:00,16.7,5.2,29.76,WNW,298,12.0,17.0,60,0.00,,CLR,0.00,0.00,VWS V14.01,2013-01-22 07:40:00,
2013-01-22 02:41:00,18.8,3.7,29.76,SSW,212,3.0,10.0,51,0.00,,CLR,0.00,0.00,VWS V14.01,2013-01-22 07:41:00,
2013-01-22 02:45:00,16.9,4.7,29.77,West,280,10.0,10.0,58,0.00,,CLR,0.00,0.00,VWS V14.01,2013-01-22 07:45:00,
2013-01-22 02:46:00,18.4,3.3,29.76,WSW,248,5.0,9.0,51,0.00,,CLR,0.00,0.00,VWS V14.01,2013-01-22 07:46:00,
2013-01-22 02:50:00,16.7,4.1,29.77,WSW,257,8.0,15.0,57,0.00,,CLR,0.00,0.00,VWS V14.01,2013-01-22 07:50:00,
2013-01-22 02:51:00,18.3,3.2,29.76,WNW,295,11.0,14.0,51,0.00,,CLR,0.00,0.00,VWS V14.01,2013-01-22 07:51:00,
2013-01-22 02:55:00,16.7,4.1,29.77,West,278,10.0,10.0,57,0.00,,CLR,0.00,0.00,VWS V14.01,2013-01-22 07:55:00,
2013-01-22 02:56:00,18.1,3.5,29.76,West,281,6.0,11.0,52,0.00,,CLR,0.00,0.00,VWS V14.01,2013-01-22 07:56:00,
2013-01-22 03:00:00,16.7,4.1,29.78,WSW,237,6.0,13.0,57,0.00,,CLR,0.00,0.00,VWS V14.01,2013-01-22 08:00:00,
2013-01-22 03:03:00,17.8,3.6,29.76,WSW,250,8.0,8.0,53,0.00,,CLR,0.00,0.00,VWS V14.01,2013-01-22 08:03:00,
2013-01-22 03:05:00,16.5,4.3,29.78,West,261,8.0,13.0,58,0.00,,CLR,0.00,0.00,VWS V14.01,2013-01-22 08:05:00,
2013-01-22 03:08:00,17.7,3.9,29.76,West,278,7.0,11.0,54,0.00,,CLR,0.00,0.00,VWS V14.01,2013-01-22 08:08:00,
2013-01-22 03:10:00,16.5,4.3,29.78,WSW,237,4.0,9.0,58,0.00,,CLR,0.00,0.00,VWS V14.01,2013-01-22 08:10:00,
2013-01-22 03:13:00,17.5,4.5,29.76,WSW,251,10.0,12.0,56,0.00,,CLR,0.00,0.00,VWS V14.01,2013-01-22 08:13:00,
2013-01-22 03:15:00,16.4,4.2,29.78,WSW,240,5.0,12.0,58,0.00,,CLR,0.00,0.00,VWS V14.01,2013-01-22 08:15:00,
2013-01-22 03:18:00,17.3,4.7,29.76,WSW,247,8.0,13.0,57,0.00,,FEW055,0.00,0.00,VWS V14.01,2013-01-22 08:18:00,
2013-01-22 03:20:00,16.4,3.5,29.78,WSW,248,6.0,11.0,56,0.00,,CLR,0.00,0.00,VWS V14.01,2013-01-22 08:20:00,
2013-01-22 03:23:00,17.2,5.3,29.76,WSW,243,6.0,12.0,59,0.00,,FEW055,0.00,0.00,VWS V14.01,2013-01-22 08:23:00,
2013-01-22 03:25:00,16.4,3.5,29.78,West,274,13.0,16.0,56,0.00,,CLR,0.00,0.00,VWS V14.01,2013-01-22 08:25:00,
2013-01-22 03:28:00,17.0,5.5,29.76,WSW,239,11.0,16.0,60,0.00,,FEW055,0.00,0.00,VWS V14.01,2013-01-22 08:28:00,
2013-01-22 03:30:00,16.4,3.5,29.79,WSW,258,0.0,7.0,56,0.00,,CLR,0.00,0.00,VWS V14.01,2013-01-22 08:30:00,
2013-01-22 03:33:00,16.9,5.4,29.76,West,261,7.0,14.0,60,0.00,,FEW055,0.00,0.00,VWS V14.01,2013-01-22 08:33:00,
2013-01-22 03:35:00,16.2,2.9,29.79,West,281,8.0,13.0,55,0.00,,CLR,0.00,0.00,VWS V14.01,2013-01-22 08:35:00,
2013-01-22 03:38:00,16.9,5.4,29.76,WSW,250,10.0,10.0,60,0.00,,FEW055,0.00,0.00,VWS V14.01,2013-01-22 08:38:00,
2013-01-22 03:40:00,16.2,2.5,29.79,West,277,17.0,17.0,54,0.00,,CLR,0.00,0.00,VWS V14.01,2013-01-22 08:40:00,
2013-01-22 03:43:00,16.9,5.1,29.76,WNW,289,2.0,11.0,59,0.00,,FEW055,0.00,0.00,VWS V14.01,2013-01-22 08:43:00,
2013-01-22 03:45:00,16.2,2.1,29.79,West,268,2.0,6.0,53,0.00,,CLR,0.00,0.00,VWS V14.01,2013-01-22 08:45:00,
2013-01-22 03:48:00,16.7,4.5,29.77,WSW,256,2.0,8.0,58,0.00,,FEW055,0.00,0.00,VWS V14.01,2013-01-22 08:48:00,
2013-01-22 03:50:00,16.2,2.1,29.79,WSW,248,8.0,11.0,53,0.00,,CLR,0.00,0.00,VWS V14.01,2013-01-22 08:50:00,
2013-01-22 03:53:00,16.7,4.1,29.77,WSW,243,2.0,10.0,57,0.00,,FEW055,0.00,0.00,VWS V14.01,2013-01-22 08:53:00,
2013-01-22 03:55:00,16.1,2.0,29.79,WSW,246,3.0,6.0,53,0.00,,CLR,0.00,0.00,VWS V14.01,2013-01-22 08:55:00,
2013-01-22 03:58:00,16.7,4.1,29.77,West,267,2.0,12.0,57,0.00,,FEW055,0.00,0.00,VWS V14.01,2013-01-22 08:58:00,
2013-01-22 04:00:00,16.1,1.2,29.80,WSW,258,8.0,12.0,51,0.00,,CLR,0.00,0.00,VWS V14.01,2013-01-22 09:00:00,
2013-01-22 04:03:00,16.5,3.9,29.78,SW,236,1.0,6.0,57,0.00,,CLR,0.00,0.00,VWS V14.01,2013-01-22 09:03:00,
2013-01-22 04:05:00,16.1,0.8,29.80,West,261,5.0,10.0,50,0.00,,CLR,0.00,0.00,VWS V14.01,2013-01-22 09:05:00,
2013-01-22 04:08:00,16.5,4.3,29.78,WSW,243,7.0,8.0,58,0.00,,CLR,0.00,0.00,VWS V14.01,2013-01-22 09:08:00,
2013-01-22 04:10:00,15.9,0.1,29.80,West,260,7.0,16.0,49,0.00,,CLR,0.00,0.00,VWS V14.01,2013-01-22 09:10:00,
2013-01-22 04:13:00,16.4,4.2,29.78,West,263,2.0,11.0,58,0.00,,CLR,0.00,0.00,VWS V14.01,2013-01-22 09:13:00,
2013-01-22 04:15:00,15.9,0.1,29.81,West,264,2.0,12.0,49,0.00,,CLR,0.00,0.00,VWS V14.01,2013-01-22 09:15:00,
2013-01-22 04:18:00,16.4,3.8,29.78,WSW,250,11.0,12.0,57,0.00,,CLR,0.00,0.00,VWS V14.01,2013-01-22 09:18:00,
2013-01-22 04:20:00,15.7,-0.5,29.81,West,267,4.0,8.0,48,0.00,,CLR,0.00,0.00,VWS V14.01,2013-01-22 09:20:00,
2013-01-22 04:23:00,16.4,3.5,29.78,West,263,7.0,12.0,56,0.00,,CLR,0.00,0.00,VWS V14.01,2013-01-22 09:23:00,
2013-01-22 04:25:00,15.7,-0.1,29.81,West,267,1.0,7.0,49,0.00,,CLR,0.00,0.00,VWS V14.01,2013-01-22 09:25:00,
2013-01-22 04:28:00,16.4,3.1,29.78,SW,220,6.0,12.0,55,0.00,,CLR,0.00,0.00,VWS V14.01,2013-01-22 09:28:00,
2013-01-22 04:30:00,15.7,-0.5,29.82,WSW,246,9.0,17.0,48,0.00,,CLR,0.00,0.00,VWS V14.01,2013-01-22 09:30:00,
2013-01-22 04:33:00,16.4,3.1,29.79,West,265,7.0,12.0,55,0.00,,CLR,0.00,0.00,VWS V14.01,2013-01-22 09:33:00,
2013-01-22 04:35:00,15.7,-0.5,29.82,NNW,329,2.0,11.0,48,0.00,,CLR,0.00,0.00,VWS V14.01,2013-01-22 09:35:00,
2013-01-22 04:38:00,16.2,2.5,29.79,West,260,3.0,7.0,54,0.00,,CLR,0.00,0.00,VWS V14.01,2013-01-22 09:38:00,
2013-01-22 04:40:00,15.7,-0.5,29.82,SW,215,2.0,7.0,48,0.00,,CLR,0.00,0.00,VWS V14.01,2013-01-22 09:40:00,
2013-01-22 04:43:00,16.2,2.5,29.79,WNW,299,5.0,8.0,54,0.00,,CLR,0.00,0.00,VWS V14.01,2013-01-22 09:43:00,
2013-01-22 04:45:00,15.6,-0.6,29.83,WNW,284,14.0,14.0,48,0.00,,CLR,0.00,0.00,VWS V14.01,2013-01-22 09:45:00,
2013-01-22 04:48:00,16.2,2.1,29.79,NNW,337,4.0,11.0,53,0.00,,CLR,0.00,0.00,VWS V14.01,2013-01-22 09:48:00,
2013-01-22 04:50:00,15.6,-0.6,29.83,West,274,7.0,12.0,48,0.00,,CLR,0.00,0.00,VWS V14.01,2013-01-22 09:50:00,
2013-01-22 04:53:00,16.1,2.0,29.79,WSW,254,0.0,11.0,53,0.00,,CLR,0.00,0.00,VWS V14.01,2013-01-22 09:53:00,
2013-01-22 04:55:00,15.6,-0.2,29.83,WSW,240,2.0,6.0,49,0.00,,CLR,0.00,0.00,VWS V14.01,2013-01-22 09:55:00,
2013-01-22 04:58:00,16.1,1.6,29.79,SW,234,13.0,13.0,52,0.00,,CLR,0.00,0.00,VWS V14.01,2013-01-22 09:58:00,
2013-01-22 05:00:00,15.4,-0.3,29.83,North,357,8.0,12.0,49,0.00,,CLR,0.00,0.00,VWS V14.01,2013-01-22 10:00:00,
2013-01-22 05:03:00,16.1,1.2,29.80,WSW,257,8.0,11.0,51,0.00,,CLR,0.00,0.00,VWS V14.01,2013-01-22 10:03:00,
2013-01-22 05:05:00,15.4,0.1,29.83,North,8,5.0,10.0,50,0.00,,CLR,0.00,0.00,VWS V14.01,2013-01-22 10:05:00,
2013-01-22 05:08:00,16.1,0.8,29.80,WSW,251,12.0,13.0,50,0.00,,CLR,0.00,0.00,VWS V14.01,2013-01-22 10:08:00,
2013-01-22 05:10:00,15.4,0.1,29.83,WSW,237,6.0,10.0,50,0.00,,CLR,0.00,0.00,VWS V14.01,2013-01-22 10:10:00,
2013-01-22 05:13:00,15.9,0.1,29.80,West,268,7.0,13.0,49,0.00,,CLR,0.00,0.00,VWS V14.01,2013-01-22 10:13:00,
2013-01-22 05:15:00,15.2,0.3,29.84,WNW,301,10.0,10.0,51,0.00,,CLR,0.00,0.00,VWS V14.01,2013-01-22 10:15:00,
2013-01-22 05:18:00,15.9,0.1,29.81,West,263,13.0,13.0,49,0.00,,CLR,0.00,0.00,VWS V14.01,2013-01-22 10:18:00,
2013-01-22 05:20:00,15.1,0.2,29.84,WNW,296,7.0,8.0,51,0.00,,CLR,0.00,0.00,VWS V14.01,2013-01-22 10:20:00,
2013-01-22 05:23:00,15.7,-0.1,29.81,West,260,3.0,6.0,49,0.00,,CLR,0.00,0.00,VWS V14.01,2013-01-22 10:23:00,
2013-01-22 05:25:00,14.9,0.1,29.84,West,280,6.0,11.0,51,0.00,,CLR,0.00,0.00,VWS V14.01,2013-01-22 10:25:00,
2013-01-22 05:28:00,15.7,-0.5,29.81,WSW,247,5.0,10.0,48,0.00,,CLR,0.00,0.00,VWS V14.01,2013-01-22 10:28:00,
2013-01-22 05:30:00,14.9,0.1,29.84,West,268,11.0,17.0,51,0.00,,CLR,0.00,0.00,VWS V14.01,2013-01-22 10:30:00,
2013-01-22 05:33:00,15.7,-0.5,29.82,WNW,285,11.0,11.0,48,0.00,,CLR,0.00,0.00,VWS V14.01,2013-01-22 10:33:00,
2013-01-22 05:35:00,14.9,-0.4,29.84,West,261,7.0,11.0,50,0.00,,CLR,0.00,0.00,VWS V14.01,2013-01-22 10:35:00,
2013-01-22 05:38:00,15.7,-0.5,29.82,West,260,8.0,8.0,48,0.00,,CLR,0.00,0.00,VWS V14.01,2013-01-22 10:38:00,
2013-01-22 05:40:00,14.8,-0.5,29.84,West,267,5.0,16.0,50,0.00,,CLR,0.00,0.00,VWS V14.01,2013-01-22 10:40:00,
2013-01-22 05:43:00,15.6,-1.0,29.82,NW,318,3.0,12.0,47,0.00,,CLR,0.00,0.00,VWS V14.01,2013-01-22 10:43:00,
2013-01-22 05:45:00,14.6,-0.6,29.85,West,274,2.0,7.0,50,0.00,,CLR,0.00,0.00,VWS V14.01,2013-01-22 10:45:00,
2013-01-22 05:48:00,15.6,-0.6,29.83,West,268,11.0,11.0,48,0.00,,CLR,0.00,0.00,VWS V14.01,2013-01-22 10:48:00,
2013-01-22 05:50:00,14.6,-0.6,29.85,West,271,6.0,11.0,50,0.00,,CLR,0.00,0.00,VWS V14.01,2013-01-22 10:50:00,
2013-01-22 05:53:00,15.6,-0.6,29.83,NW,308,0.0,11.0,48,0.00,,CLR,0.00,0.00,VWS V14.01,2013-01-22 10:53:00,
2013-01-22 05:55:00,14.4,-0.8,29.85,SW,232,3.0,11.0,50,0.00,,CLR,0.00,0.00,VWS V14.01,2013-01-22 10:55:00,
2013-01-22 05:58:00,15.6,-0.2,29.83,WNW,291,6.0,13.0,49,0.00,,CLR,0.00,0.00,VWS V14.01,2013-01-22 10:58:00,
2013-01-22 06:00:00,14.4,-0.8,29.86,WNW,285,8.0,12.0,50,0.00,,CLR,0.00,0.00,VWS V14.01,2013-01-22 11:00:00,
2013-01-22 06:03:00,15.4,-0.3,29.83,WSW,247,0.0,12.0,49,0.00,,CLR,0.00,0.00,VWS V14.01,2013-01-22 11:03:00,
2013-01-22 06:05:00,14.3,-1.4,29.86,West,274,7.0,16.0,49,0.00,,CLR,0.00,0.00,VWS V14.01,2013-01-22 11:05:00,
2013-01-22 06:08:00,15.4,0.1,29.83,West,270,5.0,8.0,50,0.00,,CLR,0.00,0.00,VWS V14.01,2013-01-22 11:08:00,
2013-01-22 06:10:00,14.1,-1.5,29.86,WNW,296,14.0,14.0,49,0.00,,CLR,0.00,0.00,VWS V14.01,2013-01-22 11:10:00,
2013-01-22 06:13:00,15.2,0.3,29.83,West,267,3.0,14.0,51,0.00,,CLR,0.00,0.00,VWS V14.01,2013-01-22 11:13:00,
2013-01-22 06:15:00,14.1,-1.1,29.86,SW,236,12.0,12.0,50,0.00,,CLR,0.00,0.00,VWS V14.01,2013-01-22 11:15:00,
2013-01-22 06:18:00,15.1,0.2,29.84,West,267,5.0,17.0,51,0.00,,CLR,0.00,0.00,VWS V14.01,2013-01-22 11:18:00,
2013-01-22 06:20:00,14.1,-1.1,29.86,West,281,10.0,13.0,50,0.00,,CLR,0.00,0.00,VWS V14.01,2013-01-22 11:20:00,
2013-01-22 06:23:00,15.1,0.2,29.84,WNW,288,3.0,12.0,51,0.00,,CLR,0.00,0.00,VWS V14.01,2013-01-22 11:23:00,
2013-01-22 06:25:00,14.1,-1.5,29.86,NW,308,9.0,12.0,49,0.00,,CLR,0.00,0.00,VWS V14.01,2013-01-22 11:25:00,
2013-01-22 06:28:00,14.9,0.1,29.84,WSW,256,7.0,13.0,51,0.00,,CLR,0.00,0.00,VWS V14.01,2013-01-22 11:28:00,
2013-01-22 06:30:00,14.1,-1.5,29.87,West,268,11.0,12.0,49,0.00,,CLR,0.00,7.00,VWS V14.01,2013-01-22 11:30:00,
2013-01-22 06:33:00,14.9,-0.4,29.84,WNW,284,3.0,16.0,50,0.00,,CLR,0.00,0.00,VWS V14.01,2013-01-22 11:33:00,
2013-01-22 06:35:00,14.1,-1.5,29.87,WNW,301,10.0,10.0,49,0.00,,CLR,0.00,16.00,VWS V14.01,2013-01-22 11:35:00,
2013-01-22 06:38:00,14.8,-0.5,29.84,WSW,254,8.0,13.0,50,0.00,,CLR,0.00,0.00,VWS V14.01,2013-01-22 11:38:00,
2013-01-22 06:40:00,14.1,-1.5,29.87,WNW,287,8.0,11.0,49,0.00,,CLR,0.00,16.00,VWS V14.01,2013-01-22 11:40:00,
2013-01-22 06:43:00,14.6,-0.6,29.84,WSW,257,7.0,12.0,50,0.00,,CLR,0.00,0.00,VWS V14.01,2013-01-22 11:43:00,
2013-01-22 06:45:00,14.1,-1.5,29.88,WNW,296,10.0,10.0,49,0.00,,CLR,0.00,14.00,VWS V14.01,2013-01-22 11:45:00,
2013-01-22 06:48:00,14.6,-0.6,29.85,WSW,254,6.0,8.0,50,0.00,,CLR,0.00,0.00,VWS V14.01,2013-01-22 11:48:00,
2013-01-22 06:50:00,14.1,-2.0,29.88,NW,309,8.0,10.0,48,0.00,,CLR,0.00,19.00,VWS V14.01,2013-01-22 11:50:00,
2013-01-22 06:53:00,14.6,-0.6,29.85,West,265,6.0,11.0,50,0.00,,CLR,0.00,0.00,VWS V14.01,2013-01-22 11:53:00,
2013-01-22 06:55:00,14.0,-2.1,29.88,West,270,6.0,10.0,48,0.00,,CLR,0.00,26.00,VWS V14.01,2013-01-22 11:55:00,
2013-01-22 06:58:00,14.4,-0.8,29.85,WSW,246,3.0,11.0,50,0.00,,CLR,0.00,0.00,VWS V14.01,2013-01-22 11:58:00,
2013-01-22 07:00:00,14.0,-2.1,29.89,WSW,248,7.0,13.0,48,0.00,,CLR,0.00,28.00,VWS V14.01,2013-01-22 12:00:00,
2013-01-22 07:03:00,14.3,-0.9,29.86,WNW,292,8.0,14.0,50,0.00,,CLR,0.00,0.00,VWS V14.01,2013-01-22 12:03:00,
2013-01-22 07:05:00,14.0,-2.5,29.89,WNW,295,14.0,14.0,47,0.00,,CLR,0.00,44.00,VWS V14.01,2013-01-22 12:05:00,
2013-01-22 07:08:00,14.1,-1.5,29.86,WSW,243,7.0,18.0,49,0.00,,CLR,0.00,0.00,VWS V14.01,2013-01-22 12:08:00,
2013-01-22 07:10:00,13.8,-2.7,29.89,WNW,302,11.0,11.0,47,0.00,,CLR,0.00,23.00,VWS V14.01,2013-01-22 12:10:00,
2013-01-22 07:13:00,14.1,-1.1,29.86,WNW,294,8.0,12.0,50,0.00,,CLR,0.00,0.00,VWS V14.01,2013-01-22 12:13:00,
2013-01-22 07:15:00,13.6,-3.3,29.89,WNW,292,6.0,10.0,46,0.00,,CLR,0.00,23.00,VWS V14.01,2013-01-22 12:15:00,
2013-01-22 07:18:00,14.1,-1.1,29.86,WSW,253,3.0,14.0,50,0.00,,CLR,0.00,0.00,VWS V14.01,2013-01-22 12:18:00,
2013-01-22 07:20:00,13.8,-3.1,29.89,WSW,240,3.0,12.0,46,0.00,,CLR,0.00,118.00,VWS V14.01,2013-01-22 12:20:00,
2013-01-22 07:23:00,14.1,-1.5,29.86,WNW,288,6.0,16.0,49,0.00,,CLR,0.00,0.00,VWS V14.01,2013-01-22 12:23:00,
2013-01-22 07:25:00,14.0,-3.4,29.89,WSW,247,11.0,13.0,45,0.00,,CLR,0.00,132.00,VWS V14.01,2013-01-22 12:25:00,
2013-01-22 07:28:00,14.1,-1.5,29.86,WNW,285,2.0,10.0,49,0.00,,CLR,0.00,0.00,VWS V14.01,2013-01-22 12:28:00,
2013-01-22 07:30:00,14.1,-3.3,29.90,West,264,0.0,3.0,45,0.00,,CLR,0.00,139.00,VWS V14.01,2013-01-22 12:30:00,
2013-01-22 07:33:00,14.1,-1.5,29.87,WNW,285,6.0,16.0,49,0.00,,CLR,0.00,7.00,VWS V14.01,2013-01-22 12:33:00,
2013-01-22 07:35:00,14.3,-3.6,29.90,West,275,10.0,16.0,44,0.00,,CLR,0.00,153.00,VWS V14.01,2013-01-22 12:35:00,
2013-01-22 07:38:00,14.1,-1.5,29.87,WSW,257,6.0,7.0,49,0.00,,CLR,0.00,16.00,VWS V14.01,2013-01-22 12:38:00,
2013-01-22 07:40:00,14.4,-4.0,29.90,West,261,8.0,13.0,43,0.00,,CLR,0.00,169.00,VWS V14.01,2013-01-22 12:40:00,
2013-01-22 07:43:00,14.1,-2.0,29.87,WNW,287,5.0,10.0,48,0.00,,CLR,0.00,14.00,VWS V14.01,2013-01-22 12:43:00,
2013-01-22 07:45:00,14.4,-4.5,29.90,SW,226,12.0,15.0,42,0.00,,CLR,0.00,183.00,VWS V14.01,2013-01-22 12:45:00,
2013-01-22 07:48:00,14.1,-2.0,29.88,West,274,4.0,12.0,48,0.00,,CLR,0.00,18.00,VWS V14.01,2013-01-22 12:48:00,
2013-01-22 07:50:00,14.4,-5.0,29.90,West,274,5.0,17.0,41,0.00,,CLR,0.00,201.00,VWS V14.01,2013-01-22 12:50:00,
2013-01-22 07:53:00,14.0,-2.1,29.88,WSW,251,6.0,7.0,48,0.00,,CLR,0.00,19.00,VWS V14.01,2013-01-22 12:53:00,
2013-01-22 07:55:00,14.8,-4.1,29.90,SW,227,3.0,13.0,42,0.00,,CLR,0.00,209.00,VWS V14.01,2013-01-22 12:55:00,
2013-01-22 07:58:00,14.0,-2.5,29.88,SW,227,2.0,8.0,47,0.00,,CLR,0.00,26.00,VWS V14.01,2013-01-22 12:58:00,
2013-01-22 08:00:00,14.9,-5.1,29.91,West,277,3.0,18.0,40,0.00,,CLR,0.00,227.00,VWS V14.01,2013-01-22 13:00:00,
2013-01-22 08:03:00,14.0,-2.5,29.89,WSW,237,7.0,11.0,47,0.00,,CLR,0.00,44.00,VWS V14.01,2013-01-22 13:03:00,
2013-01-22 08:05:00,14.9,-6.1,29.91,West,275,14.0,20.0,38,0.00,,CLR,0.00,236.00,VWS V14.01,2013-01-22 13:05:00,
2013-01-22 08:08:00,13.8,-2.7,29.89,West,264,5.0,13.0,47,0.00,,CLR,0.00,23.00,VWS V14.01,2013-01-22 13:08:00,
2013-01-22 08:10:00,14.9,-6.7,29.91,NW,312,9.0,13.0,37,0.00,,CLR,0.00,248.00,VWS V14.01,2013-01-22 13:10:00,
2013-01-22 08:13:00,13.6,-3.3,29.89,West,270,7.0,18.0,46,0.00,,CLR,0.00,21.00,VWS V14.01,2013-01-22 13:13:00,
2013-01-22 08:15:00,15.1,-7.6,29.91,WSW,257,14.0,22.0,35,0.00,,CLR,0.00,264.00,VWS V14.01,2013-01-22 13:15:00,
2013-01-22 08:18:00,13.6,-3.3,29.89,WSW,250,11.0,15.0,46,0.00,,CLR,0.00,23.00,VWS V14.01,2013-01-22 13:18:00,
2013-01-22 08:20:00,14.9,-9.0,29.91,WNW,294,12.0,22.0,33,0.00,,CLR,0.00,276.00,VWS V14.01,2013-01-22 13:20:00,
2013-01-22 08:23:00,13.8,-3.6,29.89,West,270,9.0,12.0,45,0.00,,CLR,0.00,125.00,VWS V14.01,2013-01-22 13:23:00,
2013-01-22 08:25:00,14.9,-9.6,29.91,West,267,10.0,21.0,32,0.00,,CLR,0.00,282.00,VWS V14.01,2013-01-22 13:25:00,
2013-01-22 08:28:00,14.0,-3.9,29.89,WSW,254,3.0,14.0,44,0.00,,CLR,0.00,137.00,VWS V14.01,2013-01-22 13:28:00,
2013-01-22 08:30:00,15.1,-9.4,29.92,West,275,8.0,21.0,32,0.00,,CLR,0.00,257.00,VWS V14.01,2013-01-22 13:30:00,
2013-01-22 08:33:00,14.3,-3.6,29.90,NW,305,3.0,13.0,44,0.00,,CLR,0.00,141.00,VWS V14.01,2013-01-22 13:33:00,
2013-01-22 08:35:00,15.1,-9.4,29.92,NW,304,7.0,19.0,32,0.00,,CLR,0.00,333.00,VWS V14.01,2013-01-22 13:35:00,
2013-01-22 08:38:00,14.4,-4.0,29.90,SW,223,3.0,10.0,43,0.00,,CLR,0.00,164.00,VWS V14.01,2013-01-22 13:38:00,
2013-01-22 08:40:00,15.1,-10.1,29.92,NW,309,10.0,18.0,31,0.00,,CLR,0.00,343.00,VWS V14.01,2013-01-22 13:40:00,
2013-01-22 08:43:00,14.4,-4.5,29.90,West,270,16.0,16.0,42,0.00,,CLR,0.00,174.00,VWS V14.01,2013-01-22 13:43:00,
2013-01-22 08:45:00,15.4,-9.2,29.92,WSW,253,11.0,21.0,32,0.00,,CLR,0.00,373.00,VWS V14.01,2013-01-22 13:45:00,
2013-01-22 08:48:00,14.4,-4.5,29.90,WNW,284,8.0,16.0,42,0.00,,CLR,0.00,190.00,VWS V14.01,2013-01-22 13:48:00,
2013-01-22 08:50:00,15.1,-8.8,29.92,SW,234,19.0,19.0,33,0.00,,CLR,0.00,380.00,VWS V14.01,2013-01-22 13:50:00,
2013-01-22 08:53:00,14.6,-4.3,29.90,SSW,200,6.0,11.0,42,0.00,,CLR,0.00,206.00,VWS V14.01,2013-01-22 13:53:00,
2013-01-22 08:55:00,14.6,-10.5,29.92,WNW,282,10.0,21.0,31,0.00,,CLR,0.00,99.00,VWS V14.01,2013-01-22 13:55:00,
2013-01-22 08:58:00,14.8,-5.1,29.90,SW,234,2.0,17.0,40,0.00,,CLR,0.00,218.00,VWS V14.01,2013-01-22 13:58:00,
2013-01-22 09:00:00,14.4,-10.7,29.92,WSW,253,8.0,22.0,31,0.00,,CLR,0.00,151.00,VWS V14.01,2013-01-22 14:00:00,
2013-01-22 09:03:00,14.9,-5.6,29.91,West,268,10.0,20.0,39,0.00,,CLR,0.00,229.00,VWS V14.01,2013-01-22 14:03:00,
2013-01-22 09:05:00,14.4,-10.7,29.92,West,280,13.0,18.0,31,0.00,,CLR,0.00,456.00,VWS V14.01,2013-01-22 14:05:00,
2013-01-22 09:08:00,14.8,-6.8,29.91,WNW,291,6.0,21.0,37,0.00,,CLR,0.00,232.00,VWS V14.01,2013-01-22 14:08:00,
2013-01-22 09:10:00,14.9,-9.6,29.92,West,268,25.0,25.0,32,0.00,,CLR,0.00,324.00,VWS V14.01,2013-01-22 14:10:00,
2013-01-22 09:13:00,15.1,-7.0,29.91,WSW,244,3.0,12.0,36,0.00,,CLR,0.00,257.00,VWS V14.01,2013-01-22 14:13:00,
2013-01-22 09:15:00,14.8,-9.7,29.93,WNW,287,5.0,21.0,32,0.00,,CLR,0.00,218.00,VWS V14.01,2013-01-22 14:15:00,
2013-01-22 09:18:00,14.9,-9.0,29.91,NW,305,13.0,22.0,33,0.00,,CLR,0.00,267.00,VWS V14.01,2013-01-22 14:18:00,
2013-01-22 09:20:00,14.8,-9.1,29.93,North,356,11.0,19.0,33,0.00,,CLR,0.00,343.00,VWS V14.01,2013-01-22 14:20:00,
2013-01-22 09:23:00,14.8,-9.7,29.91,WSW,253,13.0,16.0,32,0.00,,CLR,0.00,282.00,VWS V14.01,2013-01-22 14:23:00,
2013-01-22 09:25:00,14.8,-9.1,29.93,NNW,332,7.0,26.0,33,0.00,,CLR,0.00,194.00,VWS V14.01,2013-01-22 14:25:00,
2013-01-22 09:28:00,14.9,-9.0,29.91,SW,230,12.0,14.0,33,0.00,,CLR,0.00,289.00,VWS V14.01,2013-01-22 14:28:00,
2013-01-22 09:30:00,14.9,-9.6,29.93,WNW,285,8.0,20.0,32,0.00,,CLR,0.00,422.00,VWS V14.01,2013-01-22 14:30:00,
2013-01-22 09:33:00,14.9,-9.6,29.92,West,264,2.0,17.0,32,0.00,,CLR,0.00,315.00,VWS V14.01,2013-01-22 14:33:00,
2013-01-22 09:35:00,14.8,-10.4,29.93,WSW,246,7.0,25.0,31,0.00,,CLR,0.00,157.00,VWS V14.01,2013-01-22 14:35:00,
2013-01-22 09:38:00,15.1,-10.1,29.92,West,274,11.0,19.0,31,0.00,,CLR,0.00,93.00,VWS V14.01,2013-01-22 14:38:00,
2013-01-22 09:40:00,14.4,-11.4,29.93,WNW,294,5.0,21.0,30,0.00,,CLR,0.00,128.00,VWS V14.01,2013-01-22 14:40:00,
2013-01-22 09:43:00,15.4,-9.2,29.92,WSW,247,7.0,13.0,32,0.00,,CLR,0.00,343.00,VWS V14.01,2013-01-22 14:43:00,
2013-01-22 09:45:00,14.6,-10.5,29.93,West,274,11.0,18.0,31,0.00,,CLR,0.00,498.00,VWS V14.01,2013-01-22 14:45:00,
2013-01-22 09:48:00,15.1,-9.4,29.92,SW,223,5.0,20.0,32,0.00,,CLR,0.00,368.00,VWS V14.01,2013-01-22 14:48:00,
2013-01-22 09:50:00,15.1,-10.1,29.93,West,267,11.0,20.0,31,0.00,,CLR,0.00,582.00,VWS V14.01,2013-01-22 14:50:00,
2013-01-22 09:53:00,14.8,-10.4,29.92,WSW,258,10.0,24.0,31,0.00,,CLR,0.00,99.00,VWS V14.01,2013-01-22 14:53:00,
2013-01-22 09:55:00,15.1,-10.7,29.93,WNW,296,20.0,20.0,30,0.00,,CLR,0.00,611.00,VWS V14.01,2013-01-22 14:55:00,
2013-01-22 09:58:00,14.6,-9.9,29.92,WNW,288,6.0,18.0,32,0.00,,CLR,0.00,107.00,VWS V14.01,2013-01-22 14:58:00,
2013-01-22 10:00:00,14.9,-11.6,29.93,WSW,256,11.0,20.0,29,0.00,,CLR,0.00,204.00,VWS V14.01,2013-01-22 15:00:00,
2013-01-22 10:03:00,14.3,-10.8,29.92,SSW,213,6.0,20.0,31,0.00,,FEW043,0.00,130.00,VWS V14.01,2013-01-22 15:03:00,
2013-01-22 10:05:00,14.9,-10.9,29.93,West,271,11.0,17.0,30,0.00,,CLR,0.00,359.00,VWS V14.01,2013-01-22 15:05:00,
2013-01-22 10:08:00,14.9,-9.6,29.92,West,267,14.0,18.0,32,0.00,,FEW043,0.00,429.00,VWS V14.01,2013-01-22 15:08:00,
2013-01-22 10:10:00,14.9,-12.3,29.93,WSW,239,10.0,24.0,28,0.00,,CLR,0.00,121.00,VWS V14.01,2013-01-22 15:10:00,
2013-01-22 10:13:00,14.8,-9.1,29.92,West,260,11.0,17.0,33,0.00,,FEW043,0.00,208.00,VWS V14.01,2013-01-22 15:13:00,
2013-01-22 10:15:00,14.8,-13.1,29.93,NW,318,7.0,18.0,27,0.00,,CLR,0.00,542.00,VWS V14.01,2013-01-22 15:15:00,
2013-01-22 10:18:00,14.8,-9.1,29.93,WSW,254,8.0,20.0,33,0.00,,FEW043,0.00,322.00,VWS V14.01,2013-01-22 15:18:00,
2013-01-22 10:20:00,15.1,-12.9,29.93,WSW,247,11.0,19.0,27,0.00,,CLR,0.00,202.00,VWS V14.01,2013-01-22 15:20:00,
2013-01-22 10:23:00,14.8,-9.1,29.93,NW,313,2.0,18.0,33,0.00,,FEW043,0.00,215.00,VWS V14.01,2013-01-22 15:23:00,
2013-01-22 10:25:00,15.1,-13.6,29.93,WNW,284,16.0,18.0,26,0.00,,CLR,0.00,575.00,VWS V14.01,2013-01-22 15:25:00,
2013-01-22 10:28:00,14.8,-9.1,29.93,SW,234,6.0,24.0,33,0.00,,FEW043,0.00,422.00,VWS V14.01,2013-01-22 15:28:00,
2013-01-22 10:30:00,14.6,-14.0,29.93,WSW,247,12.0,20.0,26,0.00,,CLR,0.00,225.00,VWS V14.01,2013-01-22 15:30:00,
2013-01-22 10:33:00,14.8,-9.7,29.93,SW,215,7.0,15.0,32,0.00,,FEW043,0.00,167.00,VWS V14.01,2013-01-22 15:33:00,
2013-01-22 10:35:00,15.4,-13.4,29.93,NW,309,3.0,13.0,26,0.00,,CLR,0.00,493.00,VWS V14.01,2013-01-22 15:35:00,
2013-01-22 10:38:00,14.6,-11.2,29.93,West,280,16.0,20.0,30,0.00,,FEW043,0.00,181.00,VWS V14.01,2013-01-22 15:38:00,
2013-01-22 10:40:00,15.6,-13.9,29.93,WNW,299,3.0,12.0,25,0.00,,CLR,0.00,183.00,VWS V14.01,2013-01-22 15:40:00,
2013-01-22 10:44:00,14.3,-11.4,29.93,WSW,244,0.0,18.0,30,0.00,,FEW043,0.00,470.00,VWS V14.01,2013-01-22 15:44:00,
2013-01-22 10:45:00,15.6,-13.9,29.92,NW,309,9.0,12.0,25,0.00,,CLR,0.00,157.00,VWS V14.01,2013-01-22 15:45:00,
2013-01-22 10:49:00,15.1,-10.1,29.93,North,350,10.0,20.0,31,0.00,,FEW043,0.00,519.00,VWS V14.01,2013-01-22 15:49:00,
2013-01-22 10:50:00,15.6,-14.8,29.92,West,278,12.0,12.0,24,0.00,,CLR,0.00,158.00,VWS V14.01,2013-01-22 15:50:00,
2013-01-22 10:54:00,15.1,-11.4,29.93,WNW,301,10.0,20.0,29,0.00,,FEW043,0.00,604.00,VWS V14.01,2013-01-22 15:54:00,
2013-01-22 10:55:00,15.4,-15.8,29.92,SW,233,5.0,16.0,23,0.00,,CLR,0.00,524.00,VWS V14.01,2013-01-22 15:55:00,
2013-01-22 10:59:00,15.1,-10.8,29.93,WNW,296,20.0,20.0,30,0.00,,FEW043,0.00,273.00,VWS V14.01,2013-01-22 15:59:00,
2013-01-22 11:00:00,15.6,-16.5,29.92,West,274,0.0,17.0,22,0.00,,CLR,0.00,517.00,VWS V14.01,2013-01-22 16:00:00,
2013-01-22 11:04:00,14.9,-11.6,29.93,WSW,239,17.0,17.0,29,0.00,,SCT055,0.00,215.00,VWS V14.01,2013-01-22 16:04:00,
2013-01-22 11:05:00,16.1,-16.0,29.92,NW,325,6.0,12.0,22,0.00,,CLR,0.00,556.00,VWS V14.01,2013-01-22 16:05:00,
2013-01-22 11:09:00,15.1,-12.1,29.93,NNW,339,10.0,19.0,28,0.00,,SCT055,0.00,125.00,VWS V14.01,2013-01-22 16:09:00,
2013-01-22 11:10:00,16.1,-17.0,29.92,WNW,298,7.0,17.0,21,0.00,,CLR,0.00,498.00,VWS V14.01,2013-01-22 16:10:00,
2013-01-22 11:14:00,14.8,-12.4,29.93,WNW,289,14.0,22.0,28,0.00,,SCT055,0.00,345.00,VWS V14.01,2013-01-22 16:14:00,
2013-01-22 11:15:00,16.2,-15.9,29.91,SW,233,10.0,12.0,22,0.00,,CLR,0.00,496.00,VWS V14.01,2013-01-22 16:15:00,
2013-01-22 11:19:00,15.2,-13.5,29.93,WSW,253,16.0,20.0,26,0.00,,SCT055,0.00,542.00,VWS V14.01,2013-01-22 16:19:00,
2013-01-22 11:20:00,16.2,-15.1,29.91,WNW,298,6.0,11.0,23,0.00,,CLR,0.00,496.00,VWS V14.01,2013-01-22 16:20:00,
2013-01-22 11:24:00,14.9,-14.6,29.93,SW,215,17.0,18.0,25,0.00,,SCT055,0.00,542.00,VWS V14.01,2013-01-22 16:24:00,
2013-01-22 11:25:00,16.1,-14.3,29.91,West,267,3.0,17.0,24,0.00,,CLR,0.00,413.00,VWS V14.01,2013-01-22 16:25:00,
2013-01-22 11:29:00,14.8,-13.9,29.93,West,263,18.0,21.0,26,0.00,,SCT055,0.00,225.00,VWS V14.01,2013-01-22 16:29:00,
2013-01-22 11:30:00,16.4,-13.3,29.90,West,263,6.0,18.0,25,0.00,,CLR,0.00,459.00,VWS V14.01,2013-01-22 16:30:00,
2013-01-22 11:34:00,15.1,-12.1,29.93,NW,308,9.0,9.0,28,0.00,,SCT055,0.00,516.00,VWS V14.01,2013-01-22 16:34:00,
2013-01-22 11:35:00,16.2,-12.6,29.90,West,270,13.0,21.0,26,0.00,,CLR,0.00,489.00,VWS V14.01,2013-01-22 16:35:00,
2013-01-22 11:39:00,15.6,-13.2,29.93,West,274,12.0,13.0,26,0.00,,SCT055,0.00,493.00,VWS V14.01,2013-01-22 16:39:00,
2013-01-22 11:40:00,16.1,-12.0,29.90,WNW,301,11.0,20.0,27,0.00,,CLR,0.00,419.00,VWS V14.01,2013-01-22 16:40:00,
2013-01-22 11:44:00,15.4,-13.4,29.93,NW,326,7.0,12.0,26,0.00,,SCT055,0.00,157.00,VWS V14.01,2013-01-22 16:44:00,
2013-01-22 11:45:00,15.9,-12.2,29.90,WSW,240,10.0,16.0,27,0.00,,CLR,0.00,507.00,VWS V14.01,2013-01-22 16:45:00,
2013-01-22 11:49:00,15.7,-14.7,29.92,WSW,240,10.0,18.0,24,0.00,,SCT055,0.00,174.00,VWS V14.01,2013-01-22 16:49:00,
2013-01-22 11:50:00,15.6,-13.9,29.90,West,274,8.0,24.0,25,0.00,,CLR,0.00,540.00,VWS V14.01,2013-01-22 16:50:00,
2013-01-22 11:54:00,15.6,-15.6,29.92,West,271,10.0,17.0,23,0.00,,SCT055,0.00,477.00,VWS V14.01,2013-01-22 16:54:00,
2013-01-22 11:55:00,15.9,-12.9,29.90,WNW,296,2.0,12.0,26,0.00,,CLR,0.00,528.00,VWS V14.01,2013-01-22 16:55:00,
2013-01-22 11:59:00,15.6,-15.6,29.92,WSW,237,11.0,19.0,23,0.00,,SCT055,0.00,516.00,VWS V14.01,2013-01-22 16:59:00,
2013-01-22 12:00:00,16.2,-12.6,29.90,West,267,6.0,18.0,26,0.00,,CLR,0.00,505.00,VWS V14.01,2013-01-22 17:00:00,
2013-01-22 12:04:00,16.1,-15.2,29.92,WNW,288,12.0,17.0,23,0.00,,BKN055,0.00,533.00,VWS V14.01,2013-01-22 17:04:00,
2013-01-22 12:05:00,15.7,-13.1,29.90,WSW,251,17.0,22.0,26,0.00,,CLR,0.00,470.00,VWS V14.01,2013-01-22 17:05:00,
2013-01-22 12:09:00,16.2,-16.9,29.92,WNW,302,10.0,17.0,21,0.00,,BKN055,0.00,549.00,VWS V14.01,2013-01-22 17:09:00,
2013-01-22 12:10:00,15.7,-13.1,29.90,NNW,347,12.0,13.0,26,0.00,,CLR,0.00,507.00,VWS V14.01,2013-01-22 17:10:00,
2013-01-22 12:14:00,16.1,-16.0,29.92,West,270,5.0,13.0,22,0.00,,BKN055,0.00,496.00,VWS V14.01,2013-01-22 17:14:00,
2013-01-22 12:15:00,16.4,-13.3,29.90,SW,236,10.0,16.0,25,0.00,,CLR,0.00,538.00,VWS V14.01,2013-01-22 17:15:00,
2013-01-22 12:19:00,16.1,-16.0,29.91,WSW,253,7.0,19.0,22,0.00,,BKN055,0.00,496.00,VWS V14.01,2013-01-22 17:19:00,
2013-01-22 12:20:00,16.5,-13.2,29.90,NW,325,8.0,13.0,25,0.00,,CLR,0.00,503.00,VWS V14.01,2013-01-22 17:20:00,
2013-01-22 12:24:00,16.2,-15.1,29.91,WSW,243,13.0,18.0,23,0.00,,BKN055,0.00,431.00,VWS V14.01,2013-01-22 17:24:00,
2013-01-22 12:25:00,16.4,-14.9,29.90,West,267,10.0,17.0,23,0.00,,CLR,0.00,475.00,VWS V14.01,2013-01-22 17:25:00,
2013-01-22 12:29:00,16.2,-13.4,29.91,NW,306,5.0,14.0,25,0.00,,BKN055,0.00,505.00,VWS V14.01,2013-01-22 17:29:00,
2013-01-22 12:30:00,15.7,-15.5,29.90,WNW,295,10.0,19.0,23,0.00,,CLR,0.00,487.00,VWS V14.01,2013-01-22 17:30:00,
2013-01-22 12:34:00,16.4,-13.3,29.90,West,271,10.0,17.0,25,0.00,,BKN055,0.00,415.00,VWS V14.01,2013-01-22 17:34:00,
2013-01-22 12:35:00,16.4,-14.1,29.90,NW,318,13.0,21.0,24,0.00,,CLR,0.00,477.00,VWS V14.01,2013-01-22 17:35:00,
2013-01-22 12:39:00,16.2,-11.9,29.90,West,277,13.0,13.0,27,0.00,,BKN055,0.00,419.00,VWS V14.01,2013-01-22 17:39:00,
2013-01-22 12:40:00,15.7,-13.9,29.90,NW,318,21.0,21.0,25,0.00,,CLR,0.00,394.00,VWS V14.01,2013-01-22 17:40:00,
2013-01-22 12:44:00,16.1,-11.3,29.90,WNW,288,5.0,17.0,28,0.00,,BKN055,0.00,507.00,VWS V14.01,2013-01-22 17:44:00,
2013-01-22 12:45:00,15.6,-12.4,29.91,WNW,289,6.0,12.0,27,0.00,,CLR,0.00,431.00,VWS V14.01,2013-01-22 17:45:00,
2013-01-22 12:49:00,15.7,-13.1,29.90,West,277,12.0,17.0,26,0.00,,BKN055,0.00,118.00,VWS V14.01,2013-01-22 17:49:00,
2013-01-22 12:50:00,15.6,-11.7,29.91,West,260,21.0,21.0,28,0.00,,CLR,0.00,422.00,VWS V14.01,2013-01-22 17:50:00,
2013-01-22 12:54:00,15.6,-13.2,29.90,WNW,294,5.0,16.0,26,0.00,,BKN055,0.00,544.00,VWS V14.01,2013-01-22 17:54:00,
2013-01-22 12:55:00,15.4,-11.9,29.91,WSW,248,3.0,5.0,28,0.00,,CLR,0.00,70.00,VWS V14.01,2013-01-22 17:55:00,
2013-01-22 12:59:00,16.2,-13.4,29.90,WNW,302,12.0,18.0,25,0.00,,BKN055,0.00,540.00,VWS V14.01,2013-01-22 17:59:00,
2013-01-22 13:00:00,15.1,-13.6,29.91,West,270,8.0,18.0,26,0.00,,CLR,0.00,103.00,VWS V14.01,2013-01-22 18:00:00,
2013-01-22 13:04:00,15.9,-12.9,29.90,WNW,294,7.0,21.0,26,0.00,,SCT055,0.00,470.00,VWS V14.01,2013-01-22 18:04:00,
2013-01-22 13:05:00,14.8,-13.1,29.91,West,270,8.0,16.0,27,0.00,,CLR,0.00,152.00,VWS V14.01,2013-01-22 18:05:00,
2013-01-22 13:09:00,15.6,-13.2,29.90,WNW,299,12.0,21.0,26,0.00,,SCT055,0.00,505.00,VWS V14.01,2013-01-22 18:09:00,
2013-01-22 13:10:00,14.9,-13.0,29.91,West,270,8.0,20.0,27,0.00,,CLR,0.00,165.00,VWS V14.01,2013-01-22 18:10:00,
2013-01-22 13:14:00,16.1,-12.7,29.90,West,261,2.0,11.0,26,0.00,,SCT055,0.00,509.00,VWS V14.01,2013-01-22 18:14:00,
2013-01-22 13:15:00,15.0,-12.9,29.91,WSW,248,7.0,19.0,27,0.00,,CLR,0.00,119.00,VWS V14.01,2013-01-22 18:15:00,
2013-01-22 13:19:00,16.4,-13.3,29.90,WNW,292,8.0,17.0,25,0.00,,SCT055,0.00,523.00,VWS V14.01,2013-01-22 18:19:00,
2013-01-22 13:20:00,15.2,-12.8,29.91,WSW,248,8.0,18.0,27,0.00,,CLR,0.00,223.00,VWS V14.01,2013-01-22 18:20:00,
2013-01-22 13:24:00,16.5,-14.8,29.90,West,278,12.0,20.0,23,0.00,,SCT055,0.00,491.00,VWS V14.01,2013-01-22 18:24:00,
2013-01-22 13:25:00,15.0,-12.2,29.91,West,270,8.0,20.0,28,0.00,,CLR,0.00,130.00,VWS V14.01,2013-01-22 18:25:00,
2013-01-22 13:29:00,16.1,-15.2,29.90,West,274,19.0,22.0,23,0.00,,SCT055,0.00,487.00,VWS V14.01,2013-01-22 18:29:00,
2013-01-22 13:30:00,14.9,-10.9,29.92,WNW,292,5.0,12.0,30,0.00,,CLR,0.00,161.00,VWS V14.01,2013-01-22 18:30:00,
2013-01-22 13:35:00,15.2,-10.0,29.92,West,270,6.0,12.0,31,0.00,,CLR,0.00,387.00,VWS V14.01,2013-01-22 18:35:00,
2013-01-22 13:40:00,15.6,-9.6,29.92,WNW,292,8.0,24.0,31,0.00,,CLR,0.00,402.00,VWS V14.01,2013-01-22 18:40:00,
2013-01-22 13:45:00,15.6,-11.7,29.92,West,270,10.0,19.0,28,0.00,,CLR,0.00,131.00,VWS V14.01,2013-01-22 18:45:00,
2013-01-22 13:50:00,15.1,-12.1,29.92,West,270,11.0,22.0,28,0.00,,CLR,0.00,138.00,VWS V14.01,2013-01-22 18:50:00,
2013-01-22 13:55:00,14.8,-9.7,29.92,WNW,292,6.0,12.0,32,0.00,,CLR,0.00,245.00,VWS V14.01,2013-01-22 18:55:00,
2013-01-22 14:00:00,15.1,-9.4,29.92,NW,315,4.0,12.0,32,0.00,,CLR,0.00,223.00,VWS V14.01,2013-01-22 19:00:00,
2013-01-22 14:05:00,15.5,-11.8,29.92,WSW,248,7.0,17.0,28,0.00,,CLR,0.00,277.00,VWS V14.01,2013-01-22 19:05:00,
2013-01-22 14:10:00,15.9,-12.9,29.92,West,270,9.0,22.0,26,0.00,,CLR,0.00,268.00,VWS V14.01,2013-01-22 19:10:00,
2013-01-22 14:20:00,15.6,-13.2,29.92,WNW,294,7.0,7.0,26,0.00,,CLR,0.00,176.00,VWS V14.01,2013-01-22 19:20:00,
2013-01-22 14:25:00,15.4,-13.4,29.92,SW,234,12.0,19.0,26,0.00,,CLR,0.00,248.00,VWS V14.01,2013-01-22 19:25:00,
2013-01-22 14:35:00,15.6,-12.4,29.92,NW,305,14.0,17.0,27,0.00,,CLR,0.00,118.00,VWS V14.01,2013-01-22 19:35:00,
2013-01-22 14:45:00,15.1,-13.6,29.93,WNW,291,16.0,17.0,26,0.00,,CLR,0.00,130.00,VWS V14.01,2013-01-22 19:45:00,
2013-01-22 14:50:00,15.1,-13.6,29.93,West,268,12.0,20.0,26,0.00,,CLR,0.00,158.00,VWS V14.01,2013-01-22 19:50:00,
2013-01-22 14:55:00,15.1,-14.4,29.93,West,280,3.0,10.0,25,0.00,,CLR,0.00,162.00,VWS V14.01,2013-01-22 19:55:00,
2013-01-22 15:00:00,15.4,-14.1,29.93,WNW,287,5.0,10.0,25,0.00,,CLR,0.00,62.00,VWS V14.01,2013-01-22 20:00:00,
2013-01-22 15:05:00,15.2,-15.1,29.93,West,263,8.0,13.0,24,0.00,,CLR,0.00,55.00,VWS V14.01,2013-01-22 20:05:00,
2013-01-22 15:10:00,14.8,-13.9,29.93,NW,304,12.0,13.0,26,0.00,,CLR,0.00,48.00,VWS V14.01,2013-01-22 20:10:00,
2013-01-22 15:15:00,14.6,-14.0,29.95,NNW,347,4.0,10.0,26,0.00,,CLR,0.00,51.00,VWS V14.01,2013-01-22 20:15:00,
2013-01-22 15:20:00,14.6,-14.0,29.95,WSW,247,10.0,11.0,26,0.00,,CLR,0.00,35.00,VWS V14.01,2013-01-22 20:20:00,
2013-01-22 15:25:00,14.6,-13.3,29.95,North,0,6.0,11.0,27,0.00,,CLR,0.00,30.00,VWS V14.01,2013-01-22 20:25:00,
2013-01-22 15:30:00,14.4,-13.5,29.95,NW,312,2.0,11.0,27,0.00,,CLR,0.00,16.00,VWS V14.01,2013-01-22 20:30:00,
2013-01-22 15:35:00,14.4,-13.5,29.95,WNW,288,5.0,11.0,27,0.00,,CLR,0.00,14.00,VWS V14.01,2013-01-22 20:35:00,
2013-01-22 15:40:00,14.4,-12.7,29.95,West,265,1.0,6.0,28,0.00,,CLR,0.00,11.00,VWS V14.01,2013-01-22 20:40:00,
2013-01-22 15:43:00,15.4,-13.4,29.92,NNW,332,8.0,8.0,26,0.00,,SCT055,0.00,56.00,VWS V14.01,2013-01-22 20:43:00,
2013-01-22 15:45:00,14.4,-12.7,29.96,WNW,289,5.0,12.0,28,0.00,,CLR,0.00,9.00,VWS V14.01,2013-01-22 20:45:00,
2013-01-22 15:48:00,15.1,-13.6,29.93,West,281,13.0,16.0,26,0.00,,BKN055,0.00,139.00,VWS V14.01,2013-01-22 20:48:00,
2013-01-22 15:50:00,14.3,-11.4,29.96,NW,309,3.0,12.0,30,0.00,,CLR,0.00,7.00,VWS V14.01,2013-01-22 20:50:00,
2013-01-22 15:53:00,15.1,-14.4,29.93,WSW,258,11.0,17.0,25,0.00,,BKN055,0.00,158.00,VWS V14.01,2013-01-22 20:53:00,
2013-01-22 15:55:00,14.1,-11.0,29.96,NW,305,5.0,5.0,31,0.00,,CLR,0.00,0.00,VWS V14.01,2013-01-22 20:55:00,
2013-01-22 15:58:00,15.2,-13.5,29.93,WNW,302,8.0,16.0,26,0.00,,BKN055,0.00,100.00,VWS V14.01,2013-01-22 20:58:00,
2013-01-22 16:00:00,14.0,-9.8,29.96,NW,304,4.0,12.0,33,0.00,,CLR,0.00,0.00,VWS V14.01,2013-01-22 21:00:00,
2013-01-22 16:03:00,15.4,-14.9,29.93,West,270,11.0,12.0,24,0.00,,BKN060,0.00,56.00,VWS V14.01,2013-01-22 21:03:00,
2013-01-22 16:05:00,13.8,-8.8,29.96,NW,325,2.0,6.0,35,0.00,,CLR,0.00,0.00,VWS V14.01,2013-01-22 21:05:00,
2013-01-22 16:08:00,15.1,-14.4,29.93,SSW,205,16.0,20.0,25,0.00,,BKN060,0.00,42.00,VWS V14.01,2013-01-22 21:08:00,
2013-01-22 16:10:00,13.8,-7.1,29.96,WNW,284,6.0,6.0,38,0.00,,CLR,0.00,0.00,VWS V14.01,2013-01-22 21:10:00,
2013-01-22 16:13:00,14.6,-14.0,29.93,WNW,295,16.0,16.0,26,0.00,,BKN060,0.00,65.00,VWS V14.01,2013-01-22 21:13:00,
2013-01-22 16:15:00,13.6,-7.3,29.97,West,261,6.0,10.0,38,0.00,,CLR,0.00,0.00,VWS V14.01,2013-01-22 21:15:00,
2013-01-22 16:18:00,14.6,-14.0,29.95,NW,320,8.0,16.0,26,0.00,,BKN060,0.00,39.00,VWS V14.01,2013-01-22 21:18:00,
2013-01-22 16:20:00,13.5,-6.8,29.97,West,271,3.0,11.0,39,0.00,,CLR,0.00,0.00,VWS V14.01,2013-01-22 21:20:00,
2013-01-22 16:23:00,14.6,-14.0,29.95,NNW,336,7.0,16.0,26,0.00,,BKN060,0.00,28.00,VWS V14.01,2013-01-22 21:23:00,
2013-01-22 16:25:00,13.5,-6.8,29.97,West,263,3.0,12.0,39,0.00,,CLR,0.00,0.00,VWS V14.01,2013-01-22 21:25:00,
2013-01-22 16:28:00,14.4,-13.5,29.95,NW,318,3.0,8.0,27,0.00,,BKN060,0.00,28.00,VWS V14.01,2013-01-22 21:28:00,
2013-01-22 16:30:00,13.5,-6.8,29.98,WNW,298,6.0,11.0,39,0.00,,CLR,0.00,0.00,VWS V14.01,2013-01-22 21:30:00,
2013-01-22 16:31:00,14.4,-13.5,29.95,WSW,237,6.0,11.0,27,0.00,,BKN060,0.00,16.00,VWS V14.01,2013-01-22 21:31:00,
2013-01-22 16:35:00,13.3,-6.5,29.98,SSW,203,7.0,9.0,40,0.00,,CLR,0.00,0.00,VWS V14.01,2013-01-22 21:35:00,
2013-01-22 16:36:00,14.4,-12.7,29.95,SW,236,3.0,11.0,28,0.00,,BKN060,0.00,14.00,VWS V14.01,2013-01-22 21:36:00,
2013-01-22 16:40:00,13.3,-8.1,29.98,WNW,285,3.0,11.0,37,0.00,,CLR,0.00,0.00,VWS V14.01,2013-01-22 21:40:00,
2013-01-22 16:41:00,14.4,-13.5,29.95,West,267,6.0,8.0,27,0.00,,BKN060,0.00,11.00,VWS V14.01,2013-01-22 21:41:00,
2013-01-22 16:45:00,13.3,-8.6,29.99,West,272,1.0,13.0,36,0.00,,CLR,0.00,0.00,VWS V14.01,2013-01-22 21:45:00,
2013-01-22 16:46:00,14.4,-12.7,29.96,West,261,10.0,10.0,28,0.00,,BKN060,0.00,9.00,VWS V14.01,2013-01-22 21:46:00,
2013-01-22 16:50:00,13.3,-8.6,29.99,West,278,5.0,8.0,36,0.00,,CLR,0.00,0.00,VWS V14.01,2013-01-22 21:50:00,
2013-01-22 16:52:00,14.1,-11.6,29.96,WNW,288,2.0,10.0,30,0.00,,BKN060,0.00,5.00,VWS V14.01,2013-01-22 21:52:00,
2013-01-22 16:55:00,13.3,-9.8,29.99,WSW,243,3.0,10.0,34,0.00,,CLR,0.00,0.00,VWS V14.01,2013-01-22 21:55:00,
2013-01-22 16:57:00,14.0,-10.4,29.96,WNW,292,2.0,8.0,32,0.00,,BKN060,0.00,0.00,VWS V14.01,2013-01-22 21:57:00,
2013-01-22 17:00:00,13.3,-10.4,29.99,West,270,3.0,12.0,33,0.00,,CLR,0.00,0.00,VWS V14.01,2013-01-22 22:00:00,
2013-01-22 17:02:00,14.0,-9.2,29.96,WSW,248,10.0,17.0,34,0.00,,SCT060,0.00,0.00,VWS V14.01,2013-01-22 22:02:00,
2013-01-22 17:05:00,13.3,-11.0,29.99,WNW,289,3.0,8.0,32,0.00,,CLR,0.00,0.00,VWS V14.01,2013-01-22 22:05:00,
2013-01-22 17:07:00,13.8,-7.7,29.96,NNW,346,4.0,9.0,37,0.00,,SCT060,0.00,0.00,VWS V14.01,2013-01-22 22:07:00,
2013-01-22 17:10:00,13.5,-11.5,29.99,WSW,256,4.0,11.0,31,0.00,,CLR,0.00,0.00,VWS V14.01,2013-01-22 22:10:00,
2013-01-22 17:12:00,13.6,-7.8,29.96,West,263,3.0,6.0,37,0.00,,SCT060,0.00,0.00,VWS V14.01,2013-01-22 22:12:00,
2013-01-22 17:15:00,13.5,-10.9,29.99,WNW,282,2.0,3.0,32,0.00,,CLR,0.00,0.00,VWS V14.01,2013-01-22 22:15:00,
2013-01-22 17:17:00,13.5,-7.4,29.97,WNW,292,4.0,10.0,38,0.00,,SCT060,0.00,0.00,VWS V14.01,2013-01-22 22:17:00,
2013-01-22 17:20:00,13.3,-10.4,29.99,WNW,287,3.0,3.0,33,0.00,,CLR,0.00,0.00,VWS V14.01,2013-01-22 22:20:00,
2013-01-22 17:22:00,13.5,-6.8,29.97,WNW,284,4.0,9.0,39,0.00,,SCT060,0.00,0.00,VWS V14.01,2013-01-22 22:22:00,
2013-01-22 17:25:00,13.3,-9.2,29.99,WNW,287,5.0,7.0,35,0.00,,CLR,0.00,0.00,VWS V14.01,2013-01-22 22:25:00,
2013-01-22 17:27:00,13.5,-6.8,29.97,West,260,3.0,16.0,39,0.00,,SCT060,0.00,0.00,VWS V14.01,2013-01-22 22:27:00,
2013-01-22 17:30:00,13.1,-8.8,30.00,West,270,8.0,8.0,36,0.00,,CLR,0.00,0.00,VWS V14.01,2013-01-22 22:30:00,
2013-01-22 17:32:00,13.3,-7.0,29.98,WNW,287,3.0,6.0,39,0.00,,SCT060,0.00,0.00,VWS V14.01,2013-01-22 22:32:00,
2013-01-22 17:35:00,13.1,-10.0,30.00,WNW,295,5.0,13.0,34,0.00,,CLR,0.00,0.00,VWS V14.01,2013-01-22 22:35:00,
2013-01-22 17:37:00,13.3,-7.0,29.98,SW,234,6.0,11.0,39,0.00,,SCT060,0.00,0.00,VWS V14.01,2013-01-22 22:37:00,
2013-01-22 17:40:00,13.1,-10.6,30.00,WNW,295,6.0,6.0,33,0.00,,CLR,0.00,0.00,VWS V14.01,2013-01-22 22:40:00,
2013-01-22 17:42:00,13.3,-8.1,29.98,West,277,3.0,12.0,37,0.00,,SCT060,0.00,0.00,VWS V14.01,2013-01-22 22:42:00,
2013-01-22 17:45:00,12.9,-12.0,30.00,SW,229,8.0,12.0,31,0.00,,CLR,0.00,0.00,VWS V14.01,2013-01-22 22:45:00,
2013-01-22 17:47:00,13.3,-8.6,29.99,WSW,244,2.0,6.0,36,0.00,,SCT060,0.00,0.00,VWS V14.01,2013-01-22 22:47:00,
2013-01-22 17:50:00,12.9,-13.4,30.00,WSW,258,2.0,12.0,29,0.00,,CLR,0.00,0.00,VWS V14.01,2013-01-22 22:50:00,
2013-01-22 17:52:00,13.3,-9.8,29.99,West,263,4.0,8.0,34,0.00,,SCT060,0.00,0.00,VWS V14.01,2013-01-22 22:52:00,
2013-01-22 17:55:00,12.9,-13.4,30.00,WNW,282,7.0,13.0,29,0.00,,CLR,0.00,0.00,VWS V14.01,2013-01-22 22:55:00,
2013-01-22 17:57:00,13.3,-10.4,29.99,WSW,256,0.0,10.0,33,0.00,,SCT060,0.00,0.00,VWS V14.01,2013-01-22 22:57:00,
2013-01-22 18:00:00,12.8,-12.8,30.01,West,268,3.0,12.0,30,0.00,,CLR,0.00,0.00,VWS V14.01,2013-01-22 23:00:00,
2013-01-22 18:02:00,13.3,-11.0,29.99,West,281,2.0,12.0,32,0.00,,CLR,0.00,0.00,VWS V14.01,2013-01-22 23:02:00,
2013-01-22 18:05:00,12.8,-12.1,30.01,WSW,241,0.0,8.0,31,0.00,,CLR,0.00,0.00,VWS V14.01,2013-01-22 23:05:00,
2013-01-22 18:07:00,13.3,-11.0,29.99,West,281,5.0,7.0,32,0.00,,CLR,0.00,0.00,VWS V14.01,2013-01-22 23:07:00,
2013-01-22 18:10:00,12.6,-11.7,30.01,West,277,2.0,8.0,32,0.00,,CLR,0.00,0.00,VWS V14.01,2013-01-22 23:10:00,
2013-01-22 18:12:00,13.5,-11.5,29.99,WSW,253,3.0,8.0,31,0.00,,CLR,0.00,0.00,VWS V14.01,2013-01-22 23:12:00,
2013-01-22 18:15:00,12.6,-11.0,30.01,NW,313,5.0,14.0,33,0.00,,CLR,0.00,0.00,VWS V14.01,2013-01-22 23:15:00,
2013-01-22 18:17:00,13.3,-11.0,29.99,WNW,282,1.0,3.0,32,0.00,,CLR,0.00,0.00,VWS V14.01,2013-01-22 23:17:00,
2013-01-22 18:20:00,12.4,-10.0,30.01,WNW,298,5.0,7.0,35,0.00,,CLR,0.00,0.00,VWS V14.01,2013-01-22 23:20:00,
2013-01-22 18:22:00,13.3,-9.8,29.99,West,272,3.0,5.0,34,0.00,,CLR,0.00,0.00,VWS V14.01,2013-01-22 23:22:00,
2013-01-22 18:25:00,12.4,-10.0,30.01,WNW,288,5.0,10.0,35,0.00,,CLR,0.00,0.00,VWS V14.01,2013-01-22 23:25:00,
2013-01-22 18:27:00,13.3,-8.6,29.99,West,278,3.0,6.0,36,0.00,,CLR,0.00,0.00,VWS V14.01,2013-01-22 23:27:00,
2013-01-22 18:30:00,12.3,-10.1,30.02,WSW,254,5.0,12.0,35,0.00,,CLR,0.00,0.00,VWS V14.01,2013-01-22 23:30:00,
2013-01-22 18:32:00,13.1,-8.8,30.00,West,277,6.0,10.0,36,0.00,,CLR,0.00,0.00,VWS V14.01,2013-01-22 23:32:00,
2013-01-22 18:35:00,12.3,-9.6,30.02,SSW,209,2.0,4.0,36,0.00,,CLR,0.00,0.00,VWS V14.01,2013-01-22 23:35:00,
2013-01-22 18:37:00,13.1,-10.0,30.00,WSW,258,11.0,12.0,34,0.00,,CLR,0.00,0.00,VWS V14.01,2013-01-22 23:37:00,
2013-01-22 18:40:00,12.1,-10.3,30.02,West,261,4.0,7.0,35,0.00,,CLR,0.00,0.00,VWS V14.01,2013-01-22 23:40:00,
2013-01-22 18:42:00,12.9,-10.8,30.00,WSW,244,2.0,6.0,33,0.00,,CLR,0.00,0.00,VWS V14.01,2013-01-22 23:42:00,
2013-01-22 18:45:00,12.1,-10.3,30.02,West,281,9.0,12.0,35,0.00,,CLR,0.00,0.00,VWS V14.01,2013-01-22 23:45:00,
2013-01-22 18:47:00,12.9,-12.7,30.00,West,274,5.0,13.0,30,0.00,,CLR,0.00,0.00,VWS V14.01,2013-01-22 23:47:00,
2013-01-22 18:50:00,12.1,-10.9,30.02,West,280,3.0,11.0,34,0.00,,CLR,0.00,0.00,VWS V14.01,2013-01-22 23:50:00,
2013-01-22 18:52:00,12.9,-13.4,30.00,WSW,244,7.0,12.0,29,0.00,,CLR,0.00,0.00,VWS V14.01,2013-01-22 23:52:00,
2013-01-22 18:55:00,11.9,-10.5,30.02,WSW,256,6.0,7.0,35,0.00,,CLR,0.00,0.00,VWS V14.01,2013-01-22 23:55:00,
2013-01-22 18:57:00,12.8,-12.8,30.00,WSW,253,11.0,12.0,30,0.00,,CLR,0.00,0.00,VWS V14.01,2013-01-22 23:57:00,
2013-01-22 19:00:00,11.9,-11.7,30.03,West,270,2.0,7.0,33,0.00,,CLR,0.00,0.00,VWS V14.01,2013-01-23 00:00:00,
2013-01-22 19:02:00,12.8,-12.8,30.01,West,278,11.0,12.0,30,0.00,,CLR,0.00,0.00,VWS V14.01,2013-01-23 00:02:00,
2013-01-22 19:05:00,11.9,-11.7,30.03,West,265,3.0,11.0,33,0.00,,CLR,0.00,0.00,VWS V14.01,2013-01-23 00:05:00,
2013-01-22 19:07:00,12.6,-12.3,30.01,West,278,3.0,9.0,31,0.00,,CLR,0.00,0.00,VWS V14.01,2013-01-23 00:07:00,
2013-01-22 19:10:00,11.9,-11.1,30.03,NW,316,5.0,10.0,34,0.00,,CLR,0.00,0.00,VWS V14.01,2013-01-23 00:10:00,
2013-01-22 19:12:00,12.6,-11.7,30.01,WNW,302,7.0,8.0,32,0.00,,CLR,0.00,0.00,VWS V14.01,2013-01-23 00:12:00,
2013-01-22 19:15:00,11.9,-7.8,30.04,West,275,6.0,14.0,40,0.00,,CLR,0.00,0.00,VWS V14.01,2013-01-23 00:15:00,
2013-01-22 19:17:00,12.4,-10.6,30.01,West,263,5.0,11.0,34,0.00,,CLR,0.00,0.00,VWS V14.01,2013-01-23 00:17:00,
2013-01-22 19:20:00,11.7,-6.0,30.04,WNW,284,18.0,18.0,44,0.00,,CLR,0.00,0.00,VWS V14.01,2013-01-23 00:20:00,
2013-01-22 19:22:00,12.4,-10.0,30.01,West,260,3.0,6.0,35,0.00,,CLR,0.00,0.00,VWS V14.01,2013-01-23 00:22:00,
2013-01-22 19:25:00,11.6,-5.2,30.04,West,277,1.0,7.0,46,0.00,,CLR,0.00,0.00,VWS V14.01,2013-01-23 00:25:00,
2013-01-22 19:27:00,12.3,-10.1,30.01,West,264,5.0,6.0,35,0.00,,CLR,0.00,0.00,VWS V14.01,2013-01-23 00:27:00,
2013-01-22 19:30:00,11.4,-4.0,30.04,NW,312,6.0,12.0,49,0.00,,CLR,0.00,0.00,VWS V14.01,2013-01-23 00:30:00,
2013-01-22 19:32:00,12.3,-10.1,30.02,WSW,253,2.0,5.0,35,0.00,,CLR,0.00,0.00,VWS V14.01,2013-01-23 00:32:00,
2013-01-22 19:35:00,11.1,-2.7,30.04,WNW,296,2.0,10.0,53,0.00,,CLR,0.00,0.00,VWS V14.01,2013-01-23 00:35:00,
2013-01-22 19:37:00,12.1,-9.7,30.02,WSW,258,3.0,7.0,36,0.00,,CLR,0.00,0.00,VWS V14.01,2013-01-23 00:37:00,
2013-01-22 19:40:00,10.7,-2.3,30.04,West,268,6.0,13.0,55,0.00,,CLR,0.00,0.00,VWS V14.01,2013-01-23 00:40:00,
2013-01-22 19:42:00,12.1,-10.3,30.02,WSW,244,2.0,10.0,35,0.00,,CLR,0.00,0.00,VWS V14.01,2013-01-23 00:42:00,
2013-01-22 19:45:00,10.7,-2.7,30.04,NW,319,2.0,7.0,54,0.00,,CLR,0.00,0.00,VWS V14.01,2013-01-23 00:45:00,
2013-01-22 19:47:00,12.1,-10.9,30.02,West,274,2.0,9.0,34,0.00,,CLR,0.00,0.00,VWS V14.01,2013-01-23 00:47:00,
2013-01-22 19:50:00,10.7,-3.5,30.04,West,260,7.0,10.0,52,0.00,,CLR,0.00,0.00,VWS V14.01,2013-01-23 00:50:00,
2013-01-22 19:52:00,11.9,-11.1,30.02,West,260,2.0,6.0,34,0.00,,CLR,0.00,0.00,VWS V14.01,2013-01-23 00:52:00,
2013-01-22 19:55:00,11.1,-3.9,30.04,NNW,333,6.0,10.0,50,0.00,,CLR,0.00,0.00,VWS V14.01,2013-01-23 00:55:00,
2013-01-22 19:57:00,11.9,-11.1,30.02,WSW,253,5.0,12.0,34,0.00,,CLR,0.00,0.00,VWS V14.01,2013-01-23 00:57:00,
2013-01-22 20:00:00,11.2,-4.2,30.04,WNW,298,1.0,14.0,49,0.00,,CLR,0.00,0.00,VWS V14.01,2013-01-23 01:00:00,
2013-01-22 20:02:00,11.9,-11.7,30.03,West,260,1.0,10.0,33,0.00,,CLR,0.00,0.00,VWS V14.01,2013-01-23 01:02:00,
2013-01-22 20:05:00,10.9,-4.5,30.04,NNW,335,4.0,8.0,49,0.00,,CLR,0.00,0.00,VWS V14.01,2013-01-23 01:05:00,
2013-01-22 20:07:00,11.9,-11.7,30.03,WSW,258,7.0,11.0,33,0.00,,CLR,0.00,0.00,VWS V14.01,2013-01-23 01:07:00,
2013-01-22 20:10:00,10.9,-5.8,30.04,WNW,296,4.0,12.0,46,0.00,,CLR,0.00,0.00,VWS V14.01,2013-01-23 01:10:00,
2013-01-22 20:12:00,12.1,-9.7,30.03,West,281,7.0,10.0,36,0.00,,CLR,0.00,0.00,VWS V14.01,2013-01-23 01:12:00,
2013-01-22 20:15:00,10.9,-8.2,30.04,WNW,284,10.0,18.0,41,0.00,,CLR,0.00,0.00,VWS V14.01,2013-01-23 01:15:00,
2013-01-22 20:17:00,11.9,-6.8,30.04,NW,316,3.0,13.0,42,0.00,,CLR,0.00,0.00,VWS V14.01,2013-01-23 01:17:00,
2013-01-22 20:20:00,10.9,-9.7,30.04,WSW,243,17.0,17.0,38,0.00,,CLR,0.00,0.00,VWS V14.01,2013-01-23 01:20:00,
2013-01-22 20:22:00,11.7,-5.5,30.04,WNW,291,4.0,13.0,45,0.00,,CLR,0.00,0.00,VWS V14.01,2013-01-23 01:22:00,
2013-01-22 20:25:00,10.9,-13.2,30.04,West,271,1.0,21.0,32,0.00,,CLR,0.00,0.00,VWS V14.01,2013-01-23 01:25:00,
2013-01-22 20:27:00,11.6,-4.3,30.04,West,272,1.0,3.0,48,0.00,,CLR,0.00,0.00,VWS V14.01,2013-01-23 01:27:00,
2013-01-22 20:30:00,10.7,-13.3,30.05,NW,309,6.0,11.0,32,0.00,,CLR,0.00,0.00,VWS V14.01,2013-01-23 01:30:00,
2013-01-22 20:33:00,11.2,-3.4,30.04,West,281,5.0,17.0,51,0.00,,CLR,0.00,0.00,VWS V14.01,2013-01-23 01:33:00,
2013-01-22 20:35:00,10.7,-14.0,30.05,North,354,4.0,12.0,31,0.00,,CLR,0.00,0.00,VWS V14.01,2013-01-23 01:35:00,
2013-01-22 20:38:00,10.9,-2.5,30.04,NNW,333,12.0,13.0,54,0.00,,CLR,0.00,0.00,VWS V14.01,2013-01-23 01:38:00,
2013-01-22 20:40:00,10.7,-11.0,30.05,North,0,5.0,6.0,36,0.00,,CLR,0.00,0.00,VWS V14.01,2013-01-23 01:40:00,
2013-01-22 20:43:00,10.7,-2.7,30.04,WNW,289,3.0,8.0,54,0.00,,CLR,0.00,0.00,VWS V14.01,2013-01-23 01:43:00,
2013-01-22 20:45:00,10.5,-9.6,30.05,NNW,344,3.0,7.0,39,0.00,,CLR,0.00,0.00,VWS V14.01,2013-01-23 01:45:00,
2013-01-22 20:48:00,10.7,-3.0,30.04,NW,312,6.0,12.0,53,0.00,,CLR,0.00,0.00,VWS V14.01,2013-01-23 01:48:00,
2013-01-22 20:50:00,10.4,-10.2,30.05,NW,309,7.0,10.0,38,0.00,,CLR,0.00,0.00,VWS V14.01,2013-01-23 01:50:00,
2013-01-22 20:53:00,10.9,-4.1,30.04,WNW,291,1.0,12.0,50,0.00,,CLR,0.00,0.00,VWS V14.01,2013-01-23 01:53:00,
2013-01-22 20:55:00,10.2,-11.4,30.05,West,275,6.0,8.0,36,0.00,,CLR,0.00,0.00,VWS V14.01,2013-01-23 01:55:00,
2013-01-22 20:58:00,11.1,-4.3,30.04,North,356,7.0,13.0,49,0.00,,CLR,0.00,0.00,VWS V14.01,2013-01-23 01:58:00,
2013-01-22 21:00:00,10.0,-12.2,30.05,NNW,335,8.0,11.0,35,0.00,,CLR,0.00,0.00,VWS V14.01,2013-01-23 02:00:00,
2013-01-22 21:03:00,11.1,-4.3,30.04,NW,322,6.0,15.0,49,0.00,,CLR,0.00,0.00,VWS V14.01,2013-01-23 02:03:00,
2013-01-22 21:05:00,10.0,-14.0,30.05,WNW,289,7.0,12.0,32,0.00,,CLR,0.00,0.00,VWS V14.01,2013-01-23 02:05:00,
2013-01-22 21:08:00,10.9,-5.4,30.04,NW,309,8.0,12.0,47,0.00,,CLR,0.00,0.00,VWS V14.01,2013-01-23 02:08:00,
2013-01-22 21:10:00,10.0,-14.6,30.05,WNW,287,6.0,11.0,31,0.00,,CLR,0.00,0.00,VWS V14.01,2013-01-23 02:10:00,
2013-01-22 21:13:00,10.9,-6.3,30.04,NNW,332,8.0,8.0,45,0.00,,CLR,0.00,0.00,VWS V14.01,2013-01-23 02:13:00,
2013-01-22 21:15:00,10.0,-14.6,30.06,West,271,3.0,6.0,31,0.00,,CLR,0.00,0.00,VWS V14.01,2013-01-23 02:15:00,
2013-01-22 21:18:00,10.9,-9.2,30.04,NW,305,7.0,20.0,39,0.00,,CLR,0.00,0.00,VWS V14.01,2013-01-23 02:18:00,
2013-01-22 21:20:00,9.9,-14.7,30.06,West,265,7.0,13.0,31,0.00,,CLR,0.00,0.00,VWS V14.01,2013-01-23 02:20:00,
2013-01-22 21:23:00,10.9,-11.4,30.04,West,260,13.0,13.0,35,0.00,,CLR,0.00,0.00,VWS V14.01,2013-01-23 02:23:00,
2013-01-22 21:25:00,9.9,-15.3,30.06,WNW,284,5.0,12.0,30,0.00,,CLR,0.00,0.00,VWS V14.01,2013-01-23 02:25:00,
2013-01-22 21:28:00,10.9,-12.6,30.04,WNW,295,2.0,9.0,33,0.00,,CLR,0.00,0.00,VWS V14.01,2013-01-23 02:28:00,
2013-01-22 21:30:00,9.9,-15.3,30.06,West,261,2.0,12.0,30,0.00,,CLR,0.00,0.00,VWS V14.01,2013-01-23 02:30:00,
2013-01-22 21:33:00,10.7,-14.6,30.05,West,271,6.0,13.0,30,0.00,,CLR,0.00,0.00,VWS V14.01,2013-01-23 02:33:00,
2013-01-22 21:35:00,9.7,-14.9,30.06,WSW,247,2.0,9.0,31,0.00,,CLR,0.00,0.00,VWS V14.01,2013-01-23 02:35:00,
2013-01-22 21:38:00,10.7,-12.1,30.05,NW,316,1.0,11.0,34,0.00,,CLR,0.00,0.00,VWS V14.01,2013-01-23 02:38:00,
2013-01-22 21:40:00,9.7,-15.5,30.06,WSW,248,3.0,16.0,30,0.00,,CLR,0.00,0.00,VWS V14.01,2013-01-23 02:40:00,
2013-01-22 21:43:00,10.7,-10.4,30.05,NW,322,1.0,10.0,37,0.00,,CLR,0.00,0.00,VWS V14.01,2013-01-23 02:43:00,
2013-01-22 21:45:00,9.7,-14.9,30.07,WSW,241,7.0,10.0,31,0.00,,CLR,0.00,0.00,VWS V14.01,2013-01-23 02:45:00,
2013-01-22 21:48:00,10.5,-9.6,30.05,WNW,296,0.0,0.0,39,0.00,,CLR,0.00,0.00,VWS V14.01,2013-01-23 02:48:00,
2013-01-22 21:50:00,9.5,-15.7,30.07,WNW,302,2.0,14.0,30,0.00,,CLR,0.00,0.00,VWS V14.01,2013-01-23 02:50:00,
2013-01-22 21:53:00,10.2,-10.9,30.05,West,271,1.0,5.0,37,0.00,,CLR,0.00,0.00,VWS V14.01,2013-01-23 02:53:00,
2013-01-22 21:55:00,9.5,-15.0,30.07,West,270,5.0,6.0,31,0.00,,CLR,0.00,0.00,VWS V14.01,2013-01-23 02:55:00,
2013-01-22 21:58:00,10.0,-12.2,30.05,WNW,291,1.0,11.0,35,0.00,,CLR,0.00,0.00,VWS V14.01,2013-01-23 02:58:00,
2013-01-22 22:00:00,9.5,-15.0,30.06,West,261,10.0,10.0,31,0.00,,CLR,0.00,0.00,VWS V14.01,2013-01-23 03:00:00,
2013-01-22 22:03:00,10.0,-12.8,30.05,West,274,11.0,11.0,34,0.00,,CLR,0.00,0.00,VWS V14.01,2013-01-23 03:03:00,
2013-01-22 22:05:00,9.5,-15.0,30.06,West,261,8.0,10.0,31,0.00,,CLR,0.00,0.00,VWS V14.01,2013-01-23 03:05:00,
2013-01-22 22:08:00,10.0,-14.0,30.05,West,271,5.0,10.0,32,0.00,,CLR,0.00,0.00,VWS V14.01,2013-01-23 03:08:00,
2013-01-22 22:10:00,9.3,-14.6,30.06,WSW,253,5.0,8.0,32,0.00,,CLR,0.00,0.00,VWS V14.01,2013-01-23 03:10:00,
2013-01-22 22:13:00,10.0,-14.6,30.05,WNW,296,8.0,14.0,31,0.00,,CLR,0.00,0.00,VWS V14.01,2013-01-23 03:13:00,
2013-01-22 22:15:00,9.3,-14.6,30.06,WSW,258,6.0,11.0,32,0.00,,CLR,0.00,0.00,VWS V14.01,2013-01-23 03:15:00,
2013-01-22 22:18:00,10.0,-14.6,30.06,West,278,2.0,10.0,31,0.00,,CLR,0.00,0.00,VWS V14.01,2013-01-23 03:18:00,
2013-01-22 22:20:00,9.3,-14.0,30.06,SW,215,7.0,13.0,33,0.00,,CLR,0.00,0.00,VWS V14.01,2013-01-23 03:20:00,
2013-01-22 22:23:00,9.9,-14.7,30.06,SW,220,2.0,14.0,31,0.00,,CLR,0.00,0.00,VWS V14.01,2013-01-23 03:23:00,
2013-01-22 22:25:00,9.2,-14.1,30.06,WSW,247,0.0,11.0,33,0.00,,CLR,0.00,0.00,VWS V14.01,2013-01-23 03:25:00,
2013-01-22 22:28:00,9.9,-14.7,30.06,West,268,0.0,11.0,31,0.00,,CLR,0.00,0.00,VWS V14.01,2013-01-23 03:28:00,
2013-01-22 22:30:00,9.2,-14.1,30.06,SW,222,5.0,6.0,33,0.00,,CLR,0.00,0.00,VWS V14.01,2013-01-23 03:30:00,
2013-01-22 22:33:00,9.7,-14.9,30.06,SW,234,2.0,8.0,31,0.00,,CLR,0.00,0.00,VWS V14.01,2013-01-23 03:33:00,
2013-01-22 22:35:00,9.0,-14.9,30.06,SSW,205,13.0,13.0,32,0.00,,CLR,0.00,0.00,VWS V14.01,2013-01-23 03:35:00,
2013-01-22 22:38:00,9.7,-14.9,30.06,WNW,288,11.0,11.0,31,0.00,,CLR,0.00,0.00,VWS V14.01,2013-01-23 03:38:00,
2013-01-22 22:40:00,9.0,-15.5,30.06,West,261,8.0,13.0,31,0.00,,CLR,0.00,0.00,VWS V14.01,2013-01-23 03:40:00,
2013-01-22 22:43:00,9.7,-15.5,30.06,WSW,240,1.0,8.0,30,0.00,,CLR,0.00,0.00,VWS V14.01,2013-01-23 03:43:00,
2013-01-22 22:45:00,9.0,-15.5,30.06,WSW,240,3.0,5.0,31,0.00,,CLR,0.00,0.00,VWS V14.01,2013-01-23 03:45:00,
2013-01-22 22:48:00,9.7,-14.9,30.07,WSW,246,10.0,18.0,31,0.00,,CLR,0.00,0.00,VWS V14.01,2013-01-23 03:48:00,
2013-01-22 22:50:00,8.8,-15.6,30.06,WSW,254,7.0,14.0,31,0.00,,CLR,0.00,0.00,VWS V14.01,2013-01-23 03:50:00,
2013-01-22 22:53:00,9.5,-15.7,30.07,WNW,294,7.0,7.0,30,0.00,,CLR,0.00,0.00,VWS V14.01,2013-01-23 03:53:00,
2013-01-22 22:55:00,8.8,-15.6,30.06,West,277,3.0,10.0,31,0.00,,CLR,0.00,0.00,VWS V14.01,2013-01-23 03:55:00,
2013-01-22 22:58:00,9.5,-15.0,30.07,West,267,2.0,8.0,31,0.00,,CLR,0.00,0.00,VWS V14.01,2013-01-23 03:58:00,
2013-01-22 23:00:00,8.6,-15.8,30.05,WSW,251,0.0,6.0,31,0.00,,CLR,0.00,0.00,VWS V14.01,2013-01-23 04:00:00,
2013-01-22 23:03:00,9.5,-15.0,30.06,SW,229,0.0,17.0,31,0.00,,CLR,0.00,0.00,VWS V14.01,2013-01-23 04:03:00,
2013-01-22 23:05:00,8.6,-15.2,30.05,WSW,240,2.0,7.0,32,0.00,,CLR,0.00,0.00,VWS V14.01,2013-01-23 04:05:00,
2013-01-22 23:08:00,9.5,-15.0,30.06,WSW,253,5.0,11.0,31,0.00,,CLR,0.00,0.00,VWS V14.01,2013-01-23 04:08:00,
2013-01-22 23:10:00,8.6,-15.2,30.05,WSW,240,5.0,10.0,32,0.00,,CLR,0.00,0.00,VWS V14.01,2013-01-23 04:10:00,
2013-01-22 23:13:00,9.3,-14.6,30.06,WSW,250,2.0,14.0,32,0.00,,CLR,0.00,0.00,VWS V14.01,2013-01-23 04:13:00,
2013-01-22 23:15:00,8.4,-15.4,30.05,WSW,250,5.0,6.0,32,0.00,,CLR,0.00,0.00,VWS V14.01,2013-01-23 04:15:00,
2013-01-22 23:18:00,9.3,-14.6,30.06,West,271,8.0,14.0,32,0.00,,CLR,0.00,0.00,VWS V14.01,2013-01-23 04:18:00,
2013-01-22 23:20:00,8.4,-15.4,30.05,SW,229,9.0,11.0,32,0.00,,CLR,0.00,0.00,VWS V14.01,2013-01-23 04:20:00,
2013-01-22 23:23:00,9.2,-14.1,30.06,West,272,2.0,9.0,33,0.00,,CLR,0.00,0.00,VWS V14.01,2013-01-23 04:23:00,
2013-01-22 23:25:00,8.4,-15.4,30.05,WSW,257,2.0,14.0,32,0.00,,CLR,0.00,0.00,VWS V14.01,2013-01-23 04:25:00,
2013-01-22 23:28:00,9.2,-14.1,30.06,WNW,282,2.0,13.0,33,0.00,,CLR,0.00,0.00,VWS V14.01,2013-01-23 04:28:00,
2013-01-22 23:30:00,8.4,-15.4,30.05,SW,216,10.0,11.0,32,0.00,,CLR,0.00,0.00,VWS V14.01,2013-01-23 04:30:00,
2013-01-22 23:33:00,9.0,-14.2,30.06,South,191,6.0,7.0,33,0.00,,CLR,0.00,0.00,VWS V14.01,2013-01-23 04:33:00,
2013-01-22 23:35:00,8.4,-15.4,30.05,WSW,239,6.0,10.0,32,0.00,,CLR,0.00,0.00,VWS V14.01,2013-01-23 04:35:00,
2013-01-22 23:38:00,9.0,-14.9,30.06,WSW,258,9.0,12.0,32,0.00,,CLR,0.00,0.00,VWS V14.01,2013-01-23 04:38:00,
2013-01-22 23:40:00,8.3,-15.5,30.05,West,272,2.0,7.0,32,0.00,,CLR,0.00,0.00,VWS V14.01,2013-01-23 04:40:00,
2013-01-22 23:43:00,9.0,-15.5,30.06,West,270,2.0,8.0,31,0.00,,CLR,0.00,0.00,VWS V14.01,2013-01-23 04:43:00,
2013-01-22 23:45:00,8.3,-15.5,30.05,WSW,248,0.0,8.0,32,0.00,,CLR,0.00,0.00,VWS V14.01,2013-01-23 04:45:00,
2013-01-22 23:48:00,8.8,-15.6,30.06,WNW,296,4.0,7.0,31,0.00,,CLR,0.00,0.00,VWS V14.01,2013-01-23 04:48:00,
2013-01-22 23:50:00,8.3,-14.9,30.05,West,264,5.0,11.0,33,0.00,,CLR,0.00,0.00,VWS V14.01,2013-01-23 04:50:00,
2013-01-22 23:53:00,8.8,-15.6,30.06,WSW,254,0.0,5.0,31,0.00,,CLR,0.00,0.00,VWS V14.01,2013-01-23 04:53:00,
2013-01-22 23:55:00,8.1,-15.0,30.05,WSW,250,1.0,6.0,33,0.00,,CLR,0.00,0.00,VWS V14.01,2013-01-23 04:55:00,
2013-01-22 23:58:00,8.8,-15.0,30.06,West,277,3.0,4.0,32,0.00,,CLR,0.00,0.00,VWS V14.01,2013-01-23 04:58:00,